<?xml version="1.0" encoding="UTF-8" standalone="no" ?>
<gpx xmlns="http://www.topografix.com/GPX/1/1" xmlns:xsi="http://www.w3.org/2001/XMLSchema-instance" xsi:schemaLocation="http://www.topografix.com/GPX/1/1 http://www.topografix.com/GPX/1/1/gpx.xsd" version="1.1" creator="VisuGPX - https://www.visugpx.com">
  <metadata>
    <name>Boucle des vallons</name>
  </metadata>
  <trk>
    <name><![CDATA[Boucle des vallons_1]]></name>
    <trkseg>
      <trkpt lat="44.98641" lon="0.72301">
        <ele>166.6</ele>
      </trkpt>
      <trkpt lat="44.98652" lon="0.72347">
        <ele>168.6</ele>
      </trkpt>
      <trkpt lat="44.98708" lon="0.7248">
        <ele>179.3</ele>
      </trkpt>
      <trkpt lat="44.98735" lon="0.72573">
        <ele>187.9</ele>
      </trkpt>
      <trkpt lat="44.98752" lon="0.72615">
        <ele>190</ele>
      </trkpt>
      <trkpt lat="44.98649" lon="0.72597">
        <ele>188.4</ele>
      </trkpt>
      <trkpt lat="44.98592" lon="0.72612">
        <ele>186.6</ele>
      </trkpt>
      <trkpt lat="44.9852" lon="0.7261">
        <ele>187.4</ele>
      </trkpt>
      <trkpt lat="44.98396" lon="0.72612">
        <ele>185.8</ele>
      </trkpt>
      <trkpt lat="44.98266" lon="0.72651">
        <ele>176.4</ele>
      </trkpt>
      <trkpt lat="44.98082" lon="0.72727">
        <ele>151.3</ele>
      </trkpt>
      <trkpt lat="44.98048" lon="0.72737">
        <ele>148</ele>
      </trkpt>
      <trkpt lat="44.98043" lon="0.72743">
        <ele>149.4</ele>
        <time>2020-01-02T09:50:31Z</time>
      </trkpt>
      <trkpt lat="44.98046" lon="0.72745">
        <ele>149.6</ele>
        <time>2020-01-02T09:50:32Z</time>
      </trkpt>
      <trkpt lat="44.98051" lon="0.7275">
        <ele>150.6</ele>
        <time>2020-01-02T09:50:34Z</time>
      </trkpt>
      <trkpt lat="44.98057" lon="0.72756">
        <ele>151.8</ele>
        <time>2020-01-02T09:50:37Z</time>
      </trkpt>
      <trkpt lat="44.9806" lon="0.72757">
        <ele>152.2</ele>
        <time>2020-01-02T09:50:38Z</time>
      </trkpt>
      <trkpt lat="44.98067" lon="0.72763">
        <ele>153</ele>
        <time>2020-01-02T09:50:41Z</time>
      </trkpt>
      <trkpt lat="44.98078" lon="0.7277">
        <ele>154.4</ele>
        <time>2020-01-02T09:50:45Z</time>
      </trkpt>
      <trkpt lat="44.98091" lon="0.72784">
        <ele>153</ele>
        <time>2020-01-02T09:50:50Z</time>
      </trkpt>
      <trkpt lat="44.98094" lon="0.72787">
        <ele>152.6</ele>
        <time>2020-01-02T09:50:51Z</time>
      </trkpt>
      <trkpt lat="44.9811" lon="0.72799">
        <ele>153.6</ele>
        <time>2020-01-02T09:50:57Z</time>
      </trkpt>
      <trkpt lat="44.98113" lon="0.72801">
        <ele>153.6</ele>
        <time>2020-01-02T09:50:58Z</time>
      </trkpt>
      <trkpt lat="44.98124" lon="0.72816">
        <ele>151.6</ele>
        <time>2020-01-02T09:51:03Z</time>
      </trkpt>
      <trkpt lat="44.98139" lon="0.72828">
        <ele>151.6</ele>
        <time>2020-01-02T09:51:09Z</time>
      </trkpt>
      <trkpt lat="44.98154" lon="0.72841">
        <ele>152.8</ele>
        <time>2020-01-02T09:51:15Z</time>
      </trkpt>
      <trkpt lat="44.98165" lon="0.72853">
        <ele>154</ele>
        <time>2020-01-02T09:51:20Z</time>
      </trkpt>
      <trkpt lat="44.98175" lon="0.72862">
        <ele>154.2</ele>
        <time>2020-01-02T09:51:24Z</time>
      </trkpt>
      <trkpt lat="44.98181" lon="0.72867">
        <ele>153</ele>
        <time>2020-01-02T09:51:26Z</time>
      </trkpt>
      <trkpt lat="44.98188" lon="0.72873">
        <ele>152</ele>
        <time>2020-01-02T09:51:29Z</time>
      </trkpt>
      <trkpt lat="44.98204" lon="0.72884">
        <ele>153.2</ele>
        <time>2020-01-02T09:51:35Z</time>
      </trkpt>
      <trkpt lat="44.98207" lon="0.72886">
        <ele>153.6</ele>
        <time>2020-01-02T09:51:36Z</time>
      </trkpt>
      <trkpt lat="44.98211" lon="0.72889">
        <ele>154.2</ele>
        <time>2020-01-02T09:51:38Z</time>
      </trkpt>
      <trkpt lat="44.98223" lon="0.72898">
        <ele>153.4</ele>
        <time>2020-01-02T09:51:42Z</time>
      </trkpt>
      <trkpt lat="44.98226" lon="0.72901">
        <ele>152.8</ele>
        <time>2020-01-02T09:51:43Z</time>
      </trkpt>
      <trkpt lat="44.98235" lon="0.72908">
        <ele>152</ele>
        <time>2020-01-02T09:51:46Z</time>
      </trkpt>
      <trkpt lat="44.98251" lon="0.72919">
        <ele>152.8</ele>
        <time>2020-01-02T09:51:52Z</time>
      </trkpt>
      <trkpt lat="44.98254" lon="0.72921">
        <ele>153</ele>
        <time>2020-01-02T09:51:53Z</time>
      </trkpt>
      <trkpt lat="44.98262" lon="0.72924">
        <ele>154</ele>
        <time>2020-01-02T09:51:56Z</time>
      </trkpt>
      <trkpt lat="44.98264" lon="0.72926">
        <ele>154.4</ele>
        <time>2020-01-02T09:51:57Z</time>
      </trkpt>
      <trkpt lat="44.9827" lon="0.72928">
        <ele>155</ele>
        <time>2020-01-02T09:51:59Z</time>
      </trkpt>
      <trkpt lat="44.98286" lon="0.72939">
        <ele>153.8</ele>
        <time>2020-01-02T09:52:04Z</time>
      </trkpt>
      <trkpt lat="44.98304" lon="0.72953">
        <ele>153.8</ele>
        <time>2020-01-02T09:52:10Z</time>
      </trkpt>
      <trkpt lat="44.9831" lon="0.72958">
        <ele>155.2</ele>
        <time>2020-01-02T09:52:12Z</time>
      </trkpt>
      <trkpt lat="44.9831" lon="0.72958">
        <ele>155.2</ele>
        <time>2020-01-02T09:52:12Z</time>
      </trkpt>
      <trkpt lat="44.98321" lon="0.72967">
        <ele>155.6</ele>
        <time>2020-01-02T09:52:17Z</time>
      </trkpt>
      <trkpt lat="44.98329" lon="0.72974">
        <ele>153.8</ele>
        <time>2020-01-02T09:52:20Z</time>
      </trkpt>
      <trkpt lat="44.98336" lon="0.72978">
        <ele>153.4</ele>
        <time>2020-01-02T09:52:22Z</time>
      </trkpt>
      <trkpt lat="44.98345" lon="0.72984">
        <ele>152.8</ele>
        <time>2020-01-02T09:52:25Z</time>
      </trkpt>
      <trkpt lat="44.98355" lon="0.72987">
        <ele>152.2</ele>
        <time>2020-01-02T09:52:28Z</time>
      </trkpt>
      <trkpt lat="44.9837" lon="0.7299">
        <ele>151.8</ele>
        <time>2020-01-02T09:52:32Z</time>
      </trkpt>
      <trkpt lat="44.98373" lon="0.72991">
        <ele>151.4</ele>
        <time>2020-01-02T09:52:33Z</time>
      </trkpt>
      <trkpt lat="44.98379" lon="0.72996">
        <ele>150.4</ele>
        <time>2020-01-02T09:52:35Z</time>
      </trkpt>
      <trkpt lat="44.98384" lon="0.73003">
        <ele>150.2</ele>
        <time>2020-01-02T09:52:37Z</time>
      </trkpt>
      <trkpt lat="44.98388" lon="0.73021">
        <ele>151.8</ele>
        <time>2020-01-02T09:52:41Z</time>
      </trkpt>
      <trkpt lat="44.98389" lon="0.7303">
        <ele>152.2</ele>
        <time>2020-01-02T09:52:43Z</time>
      </trkpt>
      <trkpt lat="44.9839" lon="0.73048">
        <ele>151.4</ele>
        <time>2020-01-02T09:52:46Z</time>
      </trkpt>
      <trkpt lat="44.98392" lon="0.73062">
        <ele>150.8</ele>
        <time>2020-01-02T09:52:49Z</time>
      </trkpt>
      <trkpt lat="44.98395" lon="0.73076">
        <ele>151.2</ele>
        <time>2020-01-02T09:52:52Z</time>
      </trkpt>
      <trkpt lat="44.98398" lon="0.7309">
        <ele>152</ele>
        <time>2020-01-02T09:52:55Z</time>
      </trkpt>
      <trkpt lat="44.984" lon="0.73098">
        <ele>152.2</ele>
        <time>2020-01-02T09:52:57Z</time>
      </trkpt>
      <trkpt lat="44.98404" lon="0.73114">
        <ele>150.8</ele>
        <time>2020-01-02T09:53:01Z</time>
      </trkpt>
      <trkpt lat="44.98406" lon="0.73123">
        <ele>150.4</ele>
        <time>2020-01-02T09:53:03Z</time>
      </trkpt>
      <trkpt lat="44.98413" lon="0.73146">
        <ele>151.4</ele>
        <time>2020-01-02T09:53:09Z</time>
      </trkpt>
      <trkpt lat="44.98414" lon="0.73152">
        <ele>152</ele>
        <time>2020-01-02T09:53:10Z</time>
      </trkpt>
      <trkpt lat="44.98416" lon="0.73162">
        <ele>153</ele>
        <time>2020-01-02T09:53:12Z</time>
      </trkpt>
      <trkpt lat="44.9842" lon="0.73169">
        <ele>153.6</ele>
        <time>2020-01-02T09:53:14Z</time>
      </trkpt>
      <trkpt lat="44.98427" lon="0.73182">
        <ele>153.4</ele>
        <time>2020-01-02T09:53:18Z</time>
      </trkpt>
      <trkpt lat="44.98429" lon="0.73185">
        <ele>153.2</ele>
        <time>2020-01-02T09:53:19Z</time>
      </trkpt>
      <trkpt lat="44.98434" lon="0.7319">
        <ele>152.8</ele>
        <time>2020-01-02T09:53:21Z</time>
      </trkpt>
      <trkpt lat="44.98445" lon="0.732">
        <ele>152.2</ele>
        <time>2020-01-02T09:53:25Z</time>
      </trkpt>
      <trkpt lat="44.9845" lon="0.73205">
        <ele>151.8</ele>
        <time>2020-01-02T09:53:27Z</time>
      </trkpt>
      <trkpt lat="44.98462" lon="0.73214">
        <ele>151.6</ele>
        <time>2020-01-02T09:53:31Z</time>
      </trkpt>
      <trkpt lat="44.98479" lon="0.73228">
        <ele>151.6</ele>
        <time>2020-01-02T09:53:37Z</time>
      </trkpt>
      <trkpt lat="44.98493" lon="0.73244">
        <ele>151</ele>
        <time>2020-01-02T09:53:43Z</time>
      </trkpt>
      <trkpt lat="44.98499" lon="0.73251">
        <ele>151</ele>
        <time>2020-01-02T09:53:46Z</time>
      </trkpt>
      <trkpt lat="44.98504" lon="0.73262">
        <ele>151.2</ele>
        <time>2020-01-02T09:53:50Z</time>
      </trkpt>
      <trkpt lat="44.98515" lon="0.73285">
        <ele>152.4</ele>
        <time>2020-01-02T09:53:57Z</time>
      </trkpt>
      <trkpt lat="44.98522" lon="0.73298">
        <ele>152.8</ele>
        <time>2020-01-02T09:54:00Z</time>
      </trkpt>
      <trkpt lat="44.98526" lon="0.73306">
        <ele>153.4</ele>
        <time>2020-01-02T09:54:02Z</time>
      </trkpt>
      <trkpt lat="44.98531" lon="0.73312">
        <ele>154.2</ele>
        <time>2020-01-02T09:54:04Z</time>
      </trkpt>
      <trkpt lat="44.98538" lon="0.73322">
        <ele>155.4</ele>
        <time>2020-01-02T09:54:07Z</time>
      </trkpt>
      <trkpt lat="44.98539" lon="0.73325">
        <ele>155.8</ele>
        <time>2020-01-02T09:54:08Z</time>
      </trkpt>
      <trkpt lat="44.98546" lon="0.73333">
        <ele>156.8</ele>
        <time>2020-01-02T09:54:10Z</time>
      </trkpt>
      <trkpt lat="44.98555" lon="0.73342">
        <ele>157.6</ele>
        <time>2020-01-02T09:54:15Z</time>
      </trkpt>
      <trkpt lat="44.98566" lon="0.73357">
        <ele>157.4</ele>
        <time>2020-01-02T09:54:20Z</time>
      </trkpt>
      <trkpt lat="44.98573" lon="0.73365">
        <ele>157</ele>
        <time>2020-01-02T09:54:23Z</time>
      </trkpt>
      <trkpt lat="44.98578" lon="0.73369">
        <ele>156.2</ele>
        <time>2020-01-02T09:54:25Z</time>
      </trkpt>
      <trkpt lat="44.98594" lon="0.73383">
        <ele>156.8</ele>
        <time>2020-01-02T09:54:31Z</time>
      </trkpt>
      <trkpt lat="44.98601" lon="0.73388">
        <ele>158.4</ele>
        <time>2020-01-02T09:54:34Z</time>
      </trkpt>
      <trkpt lat="44.98603" lon="0.73391">
        <ele>158.8</ele>
        <time>2020-01-02T09:54:35Z</time>
      </trkpt>
      <trkpt lat="44.98605" lon="0.73393">
        <ele>159</ele>
        <time>2020-01-02T09:54:36Z</time>
      </trkpt>
      <trkpt lat="44.98607" lon="0.73396">
        <ele>159.4</ele>
        <time>2020-01-02T09:54:37Z</time>
      </trkpt>
      <trkpt lat="44.9861" lon="0.73398">
        <ele>159.6</ele>
        <time>2020-01-02T09:54:38Z</time>
      </trkpt>
      <trkpt lat="44.98612" lon="0.734">
        <ele>159.8</ele>
        <time>2020-01-02T09:54:39Z</time>
      </trkpt>
      <trkpt lat="44.98622" lon="0.73407">
        <ele>160.8</ele>
        <time>2020-01-02T09:54:43Z</time>
      </trkpt>
      <trkpt lat="44.98624" lon="0.73408">
        <ele>161.2</ele>
        <time>2020-01-02T09:54:44Z</time>
      </trkpt>
      <trkpt lat="44.98629" lon="0.7341">
        <ele>161.8</ele>
        <time>2020-01-02T09:54:46Z</time>
      </trkpt>
      <trkpt lat="44.98642" lon="0.7342">
        <ele>160.8</ele>
        <time>2020-01-02T09:54:51Z</time>
      </trkpt>
      <trkpt lat="44.98652" lon="0.73435">
        <ele>159.6</ele>
        <time>2020-01-02T09:54:54Z</time>
      </trkpt>
      <trkpt lat="44.98653" lon="0.7344">
        <ele>159.2</ele>
        <time>2020-01-02T09:54:55Z</time>
      </trkpt>
      <trkpt lat="44.98655" lon="0.73447">
        <ele>158.8</ele>
        <time>2020-01-02T09:54:56Z</time>
      </trkpt>
      <trkpt lat="44.98663" lon="0.73472">
        <ele>158.8</ele>
        <time>2020-01-02T09:55:01Z</time>
      </trkpt>
      <trkpt lat="44.98665" lon="0.73476">
        <ele>159.2</ele>
        <time>2020-01-02T09:55:02Z</time>
      </trkpt>
      <trkpt lat="44.98678" lon="0.73494">
        <ele>158.6</ele>
        <time>2020-01-02T09:55:08Z</time>
      </trkpt>
      <trkpt lat="44.98684" lon="0.73496">
        <ele>158.4</ele>
        <time>2020-01-02T09:55:10Z</time>
      </trkpt>
      <trkpt lat="44.9869" lon="0.73496">
        <ele>158.6</ele>
        <time>2020-01-02T09:55:12Z</time>
      </trkpt>
      <trkpt lat="44.98693" lon="0.73495">
        <ele>158.8</ele>
        <time>2020-01-02T09:55:13Z</time>
      </trkpt>
      <trkpt lat="44.98697" lon="0.73489">
        <ele>159.8</ele>
        <time>2020-01-02T09:55:15Z</time>
      </trkpt>
      <trkpt lat="44.98701" lon="0.73483">
        <ele>161.4</ele>
        <time>2020-01-02T09:55:17Z</time>
      </trkpt>
      <trkpt lat="44.98704" lon="0.73477">
        <ele>162.6</ele>
        <time>2020-01-02T09:55:19Z</time>
      </trkpt>
      <trkpt lat="44.98707" lon="0.73471">
        <ele>163.8</ele>
        <time>2020-01-02T09:55:21Z</time>
      </trkpt>
      <trkpt lat="44.98709" lon="0.73469">
        <ele>164.2</ele>
        <time>2020-01-02T09:55:22Z</time>
      </trkpt>
      <trkpt lat="44.9872" lon="0.73455">
        <ele>163.2</ele>
        <time>2020-01-02T09:55:27Z</time>
      </trkpt>
      <trkpt lat="44.9873" lon="0.73447">
        <ele>163.2</ele>
        <time>2020-01-02T09:55:32Z</time>
      </trkpt>
      <trkpt lat="44.98745" lon="0.73439">
        <ele>165</ele>
        <time>2020-01-02T09:55:38Z</time>
      </trkpt>
      <trkpt lat="44.98751" lon="0.73436">
        <ele>165.8</ele>
        <time>2020-01-02T09:55:40Z</time>
      </trkpt>
      <trkpt lat="44.98754" lon="0.73436">
        <ele>166.2</ele>
        <time>2020-01-02T09:55:41Z</time>
      </trkpt>
      <trkpt lat="44.98756" lon="0.73434">
        <ele>166.6</ele>
        <time>2020-01-02T09:55:42Z</time>
      </trkpt>
      <trkpt lat="44.98762" lon="0.73431">
        <ele>167.2</ele>
        <time>2020-01-02T09:55:44Z</time>
      </trkpt>
      <trkpt lat="44.9877" lon="0.73428">
        <ele>168.6</ele>
        <time>2020-01-02T09:55:47Z</time>
      </trkpt>
      <trkpt lat="44.98779" lon="0.73426">
        <ele>169.8</ele>
        <time>2020-01-02T09:55:50Z</time>
      </trkpt>
      <trkpt lat="44.98789" lon="0.73427">
        <ele>170.6</ele>
        <time>2020-01-02T09:55:53Z</time>
      </trkpt>
      <trkpt lat="44.98797" lon="0.73427">
        <ele>170.8</ele>
        <time>2020-01-02T09:55:56Z</time>
      </trkpt>
      <trkpt lat="44.988" lon="0.73427">
        <ele>171</ele>
        <time>2020-01-02T09:55:58Z</time>
      </trkpt>
      <trkpt lat="44.98804" lon="0.73428">
        <ele>171.6</ele>
        <time>2020-01-02T09:56:00Z</time>
      </trkpt>
      <trkpt lat="44.98806" lon="0.73428">
        <ele>172</ele>
        <time>2020-01-02T09:56:01Z</time>
      </trkpt>
      <trkpt lat="44.9881" lon="0.73428">
        <ele>172.4</ele>
        <time>2020-01-02T09:56:02Z</time>
      </trkpt>
      <trkpt lat="44.98813" lon="0.73428">
        <ele>172.4</ele>
        <time>2020-01-02T09:56:03Z</time>
      </trkpt>
      <trkpt lat="44.98819" lon="0.73427">
        <ele>173.2</ele>
        <time>2020-01-02T09:56:06Z</time>
      </trkpt>
      <trkpt lat="44.98826" lon="0.73427">
        <ele>173.6</ele>
        <time>2020-01-02T09:56:09Z</time>
      </trkpt>
      <trkpt lat="44.98842" lon="0.73435">
        <ele>173.2</ele>
        <time>2020-01-02T09:56:15Z</time>
      </trkpt>
      <trkpt lat="44.98854" lon="0.73436">
        <ele>173.2</ele>
        <time>2020-01-02T09:56:20Z</time>
      </trkpt>
      <trkpt lat="44.98866" lon="0.73439">
        <ele>174.2</ele>
        <time>2020-01-02T09:56:24Z</time>
      </trkpt>
      <trkpt lat="44.98869" lon="0.7344">
        <ele>174.4</ele>
        <time>2020-01-02T09:56:25Z</time>
      </trkpt>
      <trkpt lat="44.98878" lon="0.73448">
        <ele>175.4</ele>
        <time>2020-01-02T09:56:29Z</time>
      </trkpt>
      <trkpt lat="44.98884" lon="0.73451">
        <ele>175.8</ele>
        <time>2020-01-02T09:56:31Z</time>
      </trkpt>
      <trkpt lat="44.98889" lon="0.73452">
        <ele>176.4</ele>
        <time>2020-01-02T09:56:33Z</time>
      </trkpt>
      <trkpt lat="44.98895" lon="0.73453">
        <ele>178</ele>
        <time>2020-01-02T09:56:35Z</time>
      </trkpt>
      <trkpt lat="44.989" lon="0.73454">
        <ele>179.8</ele>
        <time>2020-01-02T09:56:37Z</time>
      </trkpt>
      <trkpt lat="44.98903" lon="0.73453">
        <ele>180.8</ele>
        <time>2020-01-02T09:56:39Z</time>
      </trkpt>
      <trkpt lat="44.98911" lon="0.73449">
        <ele>181.6</ele>
        <time>2020-01-02T09:56:42Z</time>
      </trkpt>
      <trkpt lat="44.98913" lon="0.73447">
        <ele>182</ele>
        <time>2020-01-02T09:56:43Z</time>
      </trkpt>
      <trkpt lat="44.98917" lon="0.73437">
        <ele>182.6</ele>
        <time>2020-01-02T09:56:47Z</time>
      </trkpt>
      <trkpt lat="44.98917" lon="0.73423">
        <ele>183</ele>
        <time>2020-01-02T09:56:51Z</time>
      </trkpt>
      <trkpt lat="44.98917" lon="0.7342">
        <ele>183.2</ele>
        <time>2020-01-02T09:56:52Z</time>
      </trkpt>
      <trkpt lat="44.98912" lon="0.73406">
        <ele>183.8</ele>
        <time>2020-01-02T09:56:56Z</time>
      </trkpt>
      <trkpt lat="44.98911" lon="0.734">
        <ele>184.2</ele>
        <time>2020-01-02T09:56:58Z</time>
      </trkpt>
      <trkpt lat="44.98912" lon="0.73394">
        <ele>184.6</ele>
        <time>2020-01-02T09:57:00Z</time>
      </trkpt>
      <trkpt lat="44.98913" lon="0.73386">
        <ele>185.2</ele>
        <time>2020-01-02T09:57:02Z</time>
      </trkpt>
      <trkpt lat="44.98917" lon="0.73373">
        <ele>186.4</ele>
        <time>2020-01-02T09:57:06Z</time>
      </trkpt>
      <trkpt lat="44.98919" lon="0.73369">
        <ele>186.8</ele>
        <time>2020-01-02T09:57:07Z</time>
      </trkpt>
      <trkpt lat="44.98923" lon="0.73362">
        <ele>187.8</ele>
        <time>2020-01-02T09:57:10Z</time>
      </trkpt>
      <trkpt lat="44.98928" lon="0.73358">
        <ele>189.2</ele>
        <time>2020-01-02T09:57:13Z</time>
      </trkpt>
      <trkpt lat="44.98935" lon="0.73351">
        <ele>190.4</ele>
        <time>2020-01-02T09:57:16Z</time>
      </trkpt>
      <trkpt lat="44.98942" lon="0.73347">
        <ele>191</ele>
        <time>2020-01-02T09:57:19Z</time>
      </trkpt>
      <trkpt lat="44.9895" lon="0.73342">
        <ele>191.4</ele>
        <time>2020-01-02T09:57:22Z</time>
      </trkpt>
      <trkpt lat="44.98956" lon="0.7334">
        <ele>191</ele>
        <time>2020-01-02T09:57:24Z</time>
      </trkpt>
      <trkpt lat="44.98975" lon="0.73333">
        <ele>190.2</ele>
        <time>2020-01-02T09:57:31Z</time>
      </trkpt>
      <trkpt lat="44.98989" lon="0.73324">
        <ele>191.8</ele>
        <time>2020-01-02T09:57:36Z</time>
      </trkpt>
      <trkpt lat="44.99006" lon="0.73313">
        <ele>190.6</ele>
        <time>2020-01-02T09:57:42Z</time>
      </trkpt>
      <trkpt lat="44.99012" lon="0.73308">
        <ele>190.4</ele>
        <time>2020-01-02T09:57:44Z</time>
      </trkpt>
      <trkpt lat="44.99026" lon="0.73294">
        <ele>191</ele>
        <time>2020-01-02T09:57:50Z</time>
      </trkpt>
      <trkpt lat="44.99035" lon="0.73282">
        <ele>192</ele>
        <time>2020-01-02T09:57:54Z</time>
      </trkpt>
      <trkpt lat="44.9904" lon="0.73277">
        <ele>192.6</ele>
        <time>2020-01-02T09:57:56Z</time>
      </trkpt>
      <trkpt lat="44.99055" lon="0.73265">
        <ele>191.8</ele>
        <time>2020-01-02T09:58:02Z</time>
      </trkpt>
      <trkpt lat="44.99069" lon="0.73256">
        <ele>191.6</ele>
        <time>2020-01-02T09:58:07Z</time>
      </trkpt>
      <trkpt lat="44.99075" lon="0.73252">
        <ele>191.6</ele>
        <time>2020-01-02T09:58:09Z</time>
      </trkpt>
      <trkpt lat="44.99093" lon="0.73246">
        <ele>192.4</ele>
        <time>2020-01-02T09:58:15Z</time>
      </trkpt>
      <trkpt lat="44.99096" lon="0.73245">
        <ele>192.6</ele>
        <time>2020-01-02T09:58:16Z</time>
      </trkpt>
      <trkpt lat="44.99104" lon="0.73242">
        <ele>193.4</ele>
        <time>2020-01-02T09:58:19Z</time>
      </trkpt>
      <trkpt lat="44.9911" lon="0.73239">
        <ele>194.4</ele>
        <time>2020-01-02T09:58:21Z</time>
      </trkpt>
      <trkpt lat="44.99115" lon="0.73237">
        <ele>195.4</ele>
        <time>2020-01-02T09:58:23Z</time>
      </trkpt>
      <trkpt lat="44.99117" lon="0.73235">
        <ele>195.8</ele>
        <time>2020-01-02T09:58:24Z</time>
      </trkpt>
      <trkpt lat="44.99124" lon="0.7323">
        <ele>197.2</ele>
        <time>2020-01-02T09:58:27Z</time>
      </trkpt>
      <trkpt lat="44.99131" lon="0.73226">
        <ele>198.2</ele>
        <time>2020-01-02T09:58:30Z</time>
      </trkpt>
      <trkpt lat="44.99136" lon="0.73223">
        <ele>199.2</ele>
        <time>2020-01-02T09:58:32Z</time>
      </trkpt>
      <trkpt lat="44.99141" lon="0.7322">
        <ele>200.2</ele>
        <time>2020-01-02T09:58:34Z</time>
      </trkpt>
      <trkpt lat="44.99143" lon="0.73219">
        <ele>200.6</ele>
        <time>2020-01-02T09:58:35Z</time>
      </trkpt>
      <trkpt lat="44.99147" lon="0.73212">
        <ele>200.8</ele>
        <time>2020-01-02T09:58:38Z</time>
      </trkpt>
      <trkpt lat="44.99151" lon="0.73205">
        <ele>200.6</ele>
        <time>2020-01-02T09:58:41Z</time>
      </trkpt>
      <trkpt lat="44.99151" lon="0.73201">
        <ele>200.6</ele>
        <time>2020-01-02T09:58:42Z</time>
      </trkpt>
      <trkpt lat="44.99144" lon="0.73187">
        <ele>200.8</ele>
        <time>2020-01-02T09:58:46Z</time>
      </trkpt>
      <trkpt lat="44.99138" lon="0.73175">
        <ele>201.8</ele>
        <time>2020-01-02T09:58:50Z</time>
      </trkpt>
      <trkpt lat="44.99132" lon="0.73164">
        <ele>202.6</ele>
        <time>2020-01-02T09:58:53Z</time>
      </trkpt>
      <trkpt lat="44.99122" lon="0.73147">
        <ele>201.2</ele>
        <time>2020-01-02T09:58:58Z</time>
      </trkpt>
      <trkpt lat="44.99118" lon="0.7314">
        <ele>200.8</ele>
        <time>2020-01-02T09:59:00Z</time>
      </trkpt>
      <trkpt lat="44.99111" lon="0.73121">
        <ele>201.8</ele>
        <time>2020-01-02T09:59:05Z</time>
      </trkpt>
      <trkpt lat="44.9911" lon="0.73117">
        <ele>201.8</ele>
        <time>2020-01-02T09:59:06Z</time>
      </trkpt>
      <trkpt lat="44.99112" lon="0.73108">
        <ele>201.8</ele>
        <time>2020-01-02T09:59:08Z</time>
      </trkpt>
      <trkpt lat="44.99118" lon="0.73104">
        <ele>201.6</ele>
        <time>2020-01-02T09:59:10Z</time>
      </trkpt>
      <trkpt lat="44.99125" lon="0.73102">
        <ele>201.6</ele>
        <time>2020-01-02T09:59:12Z</time>
      </trkpt>
      <trkpt lat="44.99136" lon="0.73103">
        <ele>201.8</ele>
        <time>2020-01-02T09:59:15Z</time>
      </trkpt>
      <trkpt lat="44.99148" lon="0.73102">
        <ele>202.6</ele>
        <time>2020-01-02T09:59:19Z</time>
      </trkpt>
      <trkpt lat="44.99152" lon="0.73102">
        <ele>202.8</ele>
        <time>2020-01-02T09:59:20Z</time>
      </trkpt>
      <trkpt lat="44.99167" lon="0.73102">
        <ele>203.8</ele>
        <time>2020-01-02T09:59:25Z</time>
      </trkpt>
      <trkpt lat="44.9917" lon="0.73102">
        <ele>204</ele>
        <time>2020-01-02T09:59:26Z</time>
      </trkpt>
      <trkpt lat="44.99177" lon="0.73102">
        <ele>204.4</ele>
        <time>2020-01-02T09:59:28Z</time>
      </trkpt>
      <trkpt lat="44.99193" lon="0.73102">
        <ele>205.2</ele>
        <time>2020-01-02T09:59:33Z</time>
      </trkpt>
      <trkpt lat="44.99205" lon="0.73102">
        <ele>206.4</ele>
        <time>2020-01-02T09:59:37Z</time>
      </trkpt>
      <trkpt lat="44.99214" lon="0.73102">
        <ele>207.2</ele>
        <time>2020-01-02T09:59:40Z</time>
      </trkpt>
      <trkpt lat="44.99217" lon="0.73102">
        <ele>207.4</ele>
        <time>2020-01-02T09:59:41Z</time>
      </trkpt>
      <trkpt lat="44.99237" lon="0.73099">
        <ele>207</ele>
        <time>2020-01-02T09:59:48Z</time>
      </trkpt>
      <trkpt lat="44.99244" lon="0.7309">
        <ele>206.6</ele>
        <time>2020-01-02T09:59:50Z</time>
      </trkpt>
      <trkpt lat="44.99245" lon="0.73086">
        <ele>206.6</ele>
        <time>2020-01-02T09:59:52Z</time>
      </trkpt>
      <trkpt lat="44.99248" lon="0.73078">
        <ele>206.2</ele>
        <time>2020-01-02T09:59:54Z</time>
      </trkpt>
      <trkpt lat="44.99252" lon="0.7307">
        <ele>205.6</ele>
        <time>2020-01-02T09:59:56Z</time>
      </trkpt>
      <trkpt lat="44.99256" lon="0.73064">
        <ele>205.4</ele>
        <time>2020-01-02T09:59:58Z</time>
      </trkpt>
      <trkpt lat="44.99268" lon="0.73046">
        <ele>205</ele>
        <time>2020-01-02T10:00:04Z</time>
      </trkpt>
      <trkpt lat="44.99271" lon="0.73043">
        <ele>204.4</ele>
        <time>2020-01-02T10:00:05Z</time>
      </trkpt>
      <trkpt lat="44.99275" lon="0.73036">
        <ele>203.8</ele>
        <time>2020-01-02T10:00:07Z</time>
      </trkpt>
      <trkpt lat="44.9928" lon="0.73026">
        <ele>204</ele>
        <time>2020-01-02T10:00:10Z</time>
      </trkpt>
      <trkpt lat="44.99292" lon="0.73003">
        <ele>203.4</ele>
        <time>2020-01-02T10:00:16Z</time>
      </trkpt>
      <trkpt lat="44.99295" lon="0.72999">
        <ele>203.2</ele>
        <time>2020-01-02T10:00:17Z</time>
      </trkpt>
      <trkpt lat="44.99305" lon="0.72984">
        <ele>202.6</ele>
        <time>2020-01-02T10:00:21Z</time>
      </trkpt>
      <trkpt lat="44.99317" lon="0.72972">
        <ele>202</ele>
        <time>2020-01-02T10:00:25Z</time>
      </trkpt>
      <trkpt lat="44.99325" lon="0.72964">
        <ele>201.6</ele>
        <time>2020-01-02T10:00:28Z</time>
      </trkpt>
      <trkpt lat="44.99328" lon="0.72962">
        <ele>201.2</ele>
        <time>2020-01-02T10:00:29Z</time>
      </trkpt>
      <trkpt lat="44.99345" lon="0.72944">
        <ele>200.8</ele>
        <time>2020-01-02T10:00:35Z</time>
      </trkpt>
      <trkpt lat="44.99348" lon="0.72941">
        <ele>200.4</ele>
        <time>2020-01-02T10:00:36Z</time>
      </trkpt>
      <trkpt lat="44.99363" lon="0.7293">
        <ele>200</ele>
        <time>2020-01-02T10:00:41Z</time>
      </trkpt>
      <trkpt lat="44.99372" lon="0.72926">
        <ele>200.2</ele>
        <time>2020-01-02T10:00:44Z</time>
      </trkpt>
      <trkpt lat="44.99381" lon="0.72921">
        <ele>199.8</ele>
        <time>2020-01-02T10:00:47Z</time>
      </trkpt>
      <trkpt lat="44.99399" lon="0.72907">
        <ele>201</ele>
        <time>2020-01-02T10:00:53Z</time>
      </trkpt>
      <trkpt lat="44.99411" lon="0.72898">
        <ele>200</ele>
        <time>2020-01-02T10:00:57Z</time>
      </trkpt>
      <trkpt lat="44.9942" lon="0.72891">
        <ele>200.4</ele>
        <time>2020-01-02T10:01:00Z</time>
      </trkpt>
      <trkpt lat="44.99435" lon="0.72879">
        <ele>200</ele>
        <time>2020-01-02T10:01:05Z</time>
      </trkpt>
      <trkpt lat="44.99448" lon="0.7287">
        <ele>200</ele>
        <time>2020-01-02T10:01:09Z</time>
      </trkpt>
      <trkpt lat="44.99461" lon="0.72863">
        <ele>199.8</ele>
        <time>2020-01-02T10:01:13Z</time>
      </trkpt>
      <trkpt lat="44.9947" lon="0.72858">
        <ele>199.6</ele>
        <time>2020-01-02T10:01:16Z</time>
      </trkpt>
      <trkpt lat="44.99477" lon="0.72856">
        <ele>199.4</ele>
        <time>2020-01-02T10:01:18Z</time>
      </trkpt>
      <trkpt lat="44.99488" lon="0.72853">
        <ele>199</ele>
        <time>2020-01-02T10:01:21Z</time>
      </trkpt>
      <trkpt lat="44.99491" lon="0.72852">
        <ele>198.6</ele>
        <time>2020-01-02T10:01:22Z</time>
      </trkpt>
      <trkpt lat="44.99494" lon="0.72851">
        <ele>198.4</ele>
        <time>2020-01-02T10:01:23Z</time>
      </trkpt>
      <trkpt lat="44.99512" lon="0.72846">
        <ele>197.6</ele>
        <time>2020-01-02T10:01:28Z</time>
      </trkpt>
      <trkpt lat="44.99515" lon="0.72846">
        <ele>197.4</ele>
        <time>2020-01-02T10:01:29Z</time>
      </trkpt>
      <trkpt lat="44.99534" lon="0.72837">
        <ele>196.8</ele>
        <time>2020-01-02T10:01:35Z</time>
      </trkpt>
      <trkpt lat="44.99541" lon="0.72833">
        <ele>196</ele>
        <time>2020-01-02T10:01:37Z</time>
      </trkpt>
      <trkpt lat="44.99556" lon="0.72825">
        <ele>194.8</ele>
        <time>2020-01-02T10:01:41Z</time>
      </trkpt>
      <trkpt lat="44.9956" lon="0.72823">
        <ele>194.6</ele>
        <time>2020-01-02T10:01:42Z</time>
      </trkpt>
      <trkpt lat="44.99571" lon="0.72819">
        <ele>193.8</ele>
        <time>2020-01-02T10:01:45Z</time>
      </trkpt>
      <trkpt lat="44.99586" lon="0.72818">
        <ele>193.4</ele>
        <time>2020-01-02T10:01:49Z</time>
      </trkpt>
      <trkpt lat="44.99597" lon="0.72817">
        <ele>192.8</ele>
        <time>2020-01-02T10:01:52Z</time>
      </trkpt>
      <trkpt lat="44.99608" lon="0.72816">
        <ele>192.6</ele>
        <time>2020-01-02T10:01:55Z</time>
      </trkpt>
      <trkpt lat="44.99629" lon="0.72813">
        <ele>191.6</ele>
        <time>2020-01-02T10:02:01Z</time>
      </trkpt>
      <trkpt lat="44.99647" lon="0.7281">
        <ele>191.6</ele>
        <time>2020-01-02T10:02:06Z</time>
      </trkpt>
      <trkpt lat="44.99651" lon="0.7281">
        <ele>191.6</ele>
        <time>2020-01-02T10:02:07Z</time>
      </trkpt>
      <trkpt lat="44.99669" lon="0.72808">
        <ele>191.6</ele>
        <time>2020-01-02T10:02:12Z</time>
      </trkpt>
      <trkpt lat="44.99673" lon="0.72807">
        <ele>191.6</ele>
        <time>2020-01-02T10:02:13Z</time>
      </trkpt>
      <trkpt lat="44.99694" lon="0.72806">
        <ele>191.2</ele>
        <time>2020-01-02T10:02:19Z</time>
      </trkpt>
      <trkpt lat="44.99698" lon="0.72806">
        <ele>190.8</ele>
        <time>2020-01-02T10:02:20Z</time>
      </trkpt>
      <trkpt lat="44.99705" lon="0.72805">
        <ele>190.6</ele>
        <time>2020-01-02T10:02:22Z</time>
      </trkpt>
      <trkpt lat="44.99719" lon="0.72802">
        <ele>189.6</ele>
        <time>2020-01-02T10:02:26Z</time>
      </trkpt>
      <trkpt lat="44.9973" lon="0.72801">
        <ele>189.8</ele>
        <time>2020-01-02T10:02:29Z</time>
      </trkpt>
      <trkpt lat="44.9974" lon="0.72797">
        <ele>189.4</ele>
        <time>2020-01-02T10:02:32Z</time>
      </trkpt>
      <trkpt lat="44.9976" lon="0.7279">
        <ele>188.8</ele>
        <time>2020-01-02T10:02:38Z</time>
      </trkpt>
      <trkpt lat="44.99766" lon="0.72788">
        <ele>188.4</ele>
        <time>2020-01-02T10:02:40Z</time>
      </trkpt>
      <trkpt lat="44.99783" lon="0.72784">
        <ele>188.4</ele>
        <time>2020-01-02T10:02:45Z</time>
      </trkpt>
      <trkpt lat="44.99793" lon="0.72789">
        <ele>188.4</ele>
        <time>2020-01-02T10:02:48Z</time>
      </trkpt>
      <trkpt lat="44.998" lon="0.72794">
        <ele>188.2</ele>
        <time>2020-01-02T10:02:50Z</time>
      </trkpt>
      <trkpt lat="44.99815" lon="0.72807">
        <ele>187.4</ele>
        <time>2020-01-02T10:02:55Z</time>
      </trkpt>
      <trkpt lat="44.99819" lon="0.72809">
        <ele>187.2</ele>
        <time>2020-01-02T10:02:56Z</time>
      </trkpt>
      <trkpt lat="44.99822" lon="0.72811">
        <ele>187</ele>
        <time>2020-01-02T10:02:57Z</time>
      </trkpt>
      <trkpt lat="44.99832" lon="0.72816">
        <ele>185.8</ele>
        <time>2020-01-02T10:03:00Z</time>
      </trkpt>
      <trkpt lat="44.99838" lon="0.72819">
        <ele>185</ele>
        <time>2020-01-02T10:03:02Z</time>
      </trkpt>
      <trkpt lat="44.99845" lon="0.72822">
        <ele>184.8</ele>
        <time>2020-01-02T10:03:04Z</time>
      </trkpt>
      <trkpt lat="44.99848" lon="0.72823">
        <ele>184.6</ele>
        <time>2020-01-02T10:03:05Z</time>
      </trkpt>
      <trkpt lat="44.99859" lon="0.72826">
        <ele>183.8</ele>
        <time>2020-01-02T10:03:08Z</time>
      </trkpt>
      <trkpt lat="44.9987" lon="0.72827">
        <ele>183</ele>
        <time>2020-01-02T10:03:11Z</time>
      </trkpt>
      <trkpt lat="44.99873" lon="0.72827">
        <ele>182.6</ele>
        <time>2020-01-02T10:03:12Z</time>
      </trkpt>
      <trkpt lat="44.99884" lon="0.72828">
        <ele>181.8</ele>
        <time>2020-01-02T10:03:15Z</time>
      </trkpt>
      <trkpt lat="44.99891" lon="0.72828">
        <ele>181.6</ele>
        <time>2020-01-02T10:03:17Z</time>
      </trkpt>
      <trkpt lat="44.99902" lon="0.7283">
        <ele>180.8</ele>
        <time>2020-01-02T10:03:20Z</time>
      </trkpt>
      <trkpt lat="44.99905" lon="0.72831">
        <ele>180.6</ele>
        <time>2020-01-02T10:03:21Z</time>
      </trkpt>
      <trkpt lat="44.99908" lon="0.72831">
        <ele>180.4</ele>
        <time>2020-01-02T10:03:22Z</time>
      </trkpt>
      <trkpt lat="44.99912" lon="0.72833">
        <ele>180.2</ele>
        <time>2020-01-02T10:03:23Z</time>
      </trkpt>
      <trkpt lat="44.99925" lon="0.72837">
        <ele>179.4</ele>
        <time>2020-01-02T10:03:27Z</time>
      </trkpt>
      <trkpt lat="44.99929" lon="0.72838">
        <ele>179</ele>
        <time>2020-01-02T10:03:28Z</time>
      </trkpt>
      <trkpt lat="44.99936" lon="0.7284">
        <ele>178.2</ele>
        <time>2020-01-02T10:03:30Z</time>
      </trkpt>
      <trkpt lat="44.99939" lon="0.72841">
        <ele>177.6</ele>
        <time>2020-01-02T10:03:31Z</time>
      </trkpt>
      <trkpt lat="44.99956" lon="0.72846">
        <ele>176.2</ele>
        <time>2020-01-02T10:03:36Z</time>
      </trkpt>
      <trkpt lat="44.99974" lon="0.7285">
        <ele>175.2</ele>
        <time>2020-01-02T10:03:41Z</time>
      </trkpt>
      <trkpt lat="44.99978" lon="0.72851">
        <ele>174.8</ele>
        <time>2020-01-02T10:03:42Z</time>
      </trkpt>
      <trkpt lat="44.99982" lon="0.72851">
        <ele>174</ele>
        <time>2020-01-02T10:03:43Z</time>
      </trkpt>
      <trkpt lat="44.99996" lon="0.72855">
        <ele>173</ele>
        <time>2020-01-02T10:03:47Z</time>
      </trkpt>
      <trkpt lat="44.99999" lon="0.72856">
        <ele>172.6</ele>
        <time>2020-01-02T10:03:48Z</time>
      </trkpt>
      <trkpt lat="45.00018" lon="0.72861">
        <ele>171.8</ele>
        <time>2020-01-02T10:03:53Z</time>
      </trkpt>
      <trkpt lat="45.00021" lon="0.72862">
        <ele>171.6</ele>
        <time>2020-01-02T10:03:54Z</time>
      </trkpt>
      <trkpt lat="45.00032" lon="0.72864">
        <ele>170.8</ele>
        <time>2020-01-02T10:03:57Z</time>
      </trkpt>
      <trkpt lat="45.00043" lon="0.72865">
        <ele>169.8</ele>
        <time>2020-01-02T10:04:00Z</time>
      </trkpt>
      <trkpt lat="45.00047" lon="0.72866">
        <ele>169.6</ele>
        <time>2020-01-02T10:04:01Z</time>
      </trkpt>
      <trkpt lat="45.00062" lon="0.72867">
        <ele>168.4</ele>
        <time>2020-01-02T10:04:05Z</time>
      </trkpt>
      <trkpt lat="45.00069" lon="0.72868">
        <ele>167.4</ele>
        <time>2020-01-02T10:04:07Z</time>
      </trkpt>
      <trkpt lat="45.00073" lon="0.72869">
        <ele>167.2</ele>
        <time>2020-01-02T10:04:08Z</time>
      </trkpt>
      <trkpt lat="45.00091" lon="0.7287">
        <ele>166.2</ele>
        <time>2020-01-02T10:04:13Z</time>
      </trkpt>
      <trkpt lat="45.00094" lon="0.7287">
        <ele>166</ele>
        <time>2020-01-02T10:04:14Z</time>
      </trkpt>
      <trkpt lat="45.00111" lon="0.72864">
        <ele>165</ele>
        <time>2020-01-02T10:04:19Z</time>
      </trkpt>
      <trkpt lat="45.0012" lon="0.72851">
        <ele>164</ele>
        <time>2020-01-02T10:04:23Z</time>
      </trkpt>
      <trkpt lat="45.00126" lon="0.72838">
        <ele>164</ele>
        <time>2020-01-02T10:04:26Z</time>
      </trkpt>
      <trkpt lat="45.0014" lon="0.72815">
        <ele>164.8</ele>
        <time>2020-01-02T10:04:32Z</time>
      </trkpt>
      <trkpt lat="45.00156" lon="0.72798">
        <ele>163.8</ele>
        <time>2020-01-02T10:04:38Z</time>
      </trkpt>
      <trkpt lat="45.00159" lon="0.72796">
        <ele>163.8</ele>
        <time>2020-01-02T10:04:39Z</time>
      </trkpt>
      <trkpt lat="45.00162" lon="0.72794">
        <ele>163.8</ele>
        <time>2020-01-02T10:04:40Z</time>
      </trkpt>
      <trkpt lat="45.00172" lon="0.72791">
        <ele>165</ele>
        <time>2020-01-02T10:04:43Z</time>
      </trkpt>
      <trkpt lat="45.00181" lon="0.72789">
        <ele>166.6</ele>
        <time>2020-01-02T10:04:46Z</time>
      </trkpt>
      <trkpt lat="45.00187" lon="0.72789">
        <ele>167.8</ele>
        <time>2020-01-02T10:04:48Z</time>
      </trkpt>
      <trkpt lat="45.00195" lon="0.72787">
        <ele>169</ele>
        <time>2020-01-02T10:04:51Z</time>
      </trkpt>
      <trkpt lat="45.00202" lon="0.7279">
        <ele>170.2</ele>
        <time>2020-01-02T10:04:54Z</time>
      </trkpt>
      <trkpt lat="45.0021" lon="0.72792">
        <ele>171.4</ele>
        <time>2020-01-02T10:04:57Z</time>
      </trkpt>
      <trkpt lat="45.00215" lon="0.72794">
        <ele>171.8</ele>
        <time>2020-01-02T10:04:59Z</time>
      </trkpt>
      <trkpt lat="45.00221" lon="0.72798">
        <ele>172.6</ele>
        <time>2020-01-02T10:05:01Z</time>
      </trkpt>
      <trkpt lat="45.00229" lon="0.72803">
        <ele>172.6</ele>
        <time>2020-01-02T10:05:05Z</time>
      </trkpt>
      <trkpt lat="45.00241" lon="0.72811">
        <ele>173.6</ele>
        <time>2020-01-02T10:05:09Z</time>
      </trkpt>
      <trkpt lat="45.00246" lon="0.72814">
        <ele>174.2</ele>
        <time>2020-01-02T10:05:11Z</time>
      </trkpt>
      <trkpt lat="45.00256" lon="0.72819">
        <ele>174.8</ele>
        <time>2020-01-02T10:05:15Z</time>
      </trkpt>
      <trkpt lat="45.0026" lon="0.72821">
        <ele>175</ele>
        <time>2020-01-02T10:05:17Z</time>
      </trkpt>
      <trkpt lat="45.00271" lon="0.72829">
        <ele>175.8</ele>
        <time>2020-01-02T10:05:22Z</time>
      </trkpt>
      <trkpt lat="45.00274" lon="0.72831">
        <ele>176</ele>
        <time>2020-01-02T10:05:23Z</time>
      </trkpt>
      <trkpt lat="45.00288" lon="0.72837">
        <ele>176.8</ele>
        <time>2020-01-02T10:05:28Z</time>
      </trkpt>
      <trkpt lat="45.00291" lon="0.72838">
        <ele>177</ele>
        <time>2020-01-02T10:05:29Z</time>
      </trkpt>
      <trkpt lat="45.00301" lon="0.72844">
        <ele>177.8</ele>
        <time>2020-01-02T10:05:33Z</time>
      </trkpt>
      <trkpt lat="45.00306" lon="0.72848">
        <ele>178.4</ele>
        <time>2020-01-02T10:05:35Z</time>
      </trkpt>
      <trkpt lat="45.0031" lon="0.72857">
        <ele>179.2</ele>
        <time>2020-01-02T10:05:37Z</time>
      </trkpt>
      <trkpt lat="45.00313" lon="0.72869">
        <ele>180.4</ele>
        <time>2020-01-02T10:05:40Z</time>
      </trkpt>
      <trkpt lat="45.00315" lon="0.72879">
        <ele>181.6</ele>
        <time>2020-01-02T10:05:43Z</time>
      </trkpt>
      <trkpt lat="45.00318" lon="0.72886">
        <ele>182.8</ele>
        <time>2020-01-02T10:05:45Z</time>
      </trkpt>
      <trkpt lat="45.00322" lon="0.72891">
        <ele>183.8</ele>
        <time>2020-01-02T10:05:47Z</time>
      </trkpt>
      <trkpt lat="45.00331" lon="0.72904">
        <ele>184.6</ele>
        <time>2020-01-02T10:05:52Z</time>
      </trkpt>
      <trkpt lat="45.00337" lon="0.72911">
        <ele>185</ele>
        <time>2020-01-02T10:05:55Z</time>
      </trkpt>
      <trkpt lat="45.00347" lon="0.72924">
        <ele>185.8</ele>
        <time>2020-01-02T10:06:00Z</time>
      </trkpt>
      <trkpt lat="45.00349" lon="0.72926">
        <ele>186</ele>
        <time>2020-01-02T10:06:01Z</time>
      </trkpt>
      <trkpt lat="45.00361" lon="0.72937">
        <ele>187.2</ele>
        <time>2020-01-02T10:06:06Z</time>
      </trkpt>
      <trkpt lat="45.00364" lon="0.72939">
        <ele>187.4</ele>
        <time>2020-01-02T10:06:07Z</time>
      </trkpt>
      <trkpt lat="45.00374" lon="0.72948">
        <ele>187.8</ele>
        <time>2020-01-02T10:06:11Z</time>
      </trkpt>
      <trkpt lat="45.00374" lon="0.72953">
        <ele>188</ele>
        <time>2020-01-02T10:06:12Z</time>
      </trkpt>
      <trkpt lat="45.00374" lon="0.72958">
        <ele>188.4</ele>
        <time>2020-01-02T10:06:13Z</time>
      </trkpt>
      <trkpt lat="45.00371" lon="0.72973">
        <ele>188.8</ele>
        <time>2020-01-02T10:06:16Z</time>
      </trkpt>
      <trkpt lat="45.0037" lon="0.72978">
        <ele>188.8</ele>
        <time>2020-01-02T10:06:17Z</time>
      </trkpt>
      <trkpt lat="45.00369" lon="0.72983">
        <ele>188.4</ele>
        <time>2020-01-02T10:06:18Z</time>
      </trkpt>
      <trkpt lat="45.00365" lon="0.72997">
        <ele>187</ele>
        <time>2020-01-02T10:06:21Z</time>
      </trkpt>
      <trkpt lat="45.00362" lon="0.73006">
        <ele>186.6</ele>
        <time>2020-01-02T10:06:23Z</time>
      </trkpt>
      <trkpt lat="45.00357" lon="0.73022">
        <ele>188.4</ele>
        <time>2020-01-02T10:06:27Z</time>
      </trkpt>
      <trkpt lat="45.00352" lon="0.73043">
        <ele>188.2</ele>
        <time>2020-01-02T10:06:32Z</time>
      </trkpt>
      <trkpt lat="45.00352" lon="0.73052">
        <ele>187.2</ele>
        <time>2020-01-02T10:06:34Z</time>
      </trkpt>
      <trkpt lat="45.00352" lon="0.73064">
        <ele>186.8</ele>
        <time>2020-01-02T10:06:37Z</time>
      </trkpt>
      <trkpt lat="45.00352" lon="0.73088">
        <ele>187.8</ele>
        <time>2020-01-02T10:06:42Z</time>
      </trkpt>
      <trkpt lat="45.00351" lon="0.73097">
        <ele>187.8</ele>
        <time>2020-01-02T10:06:44Z</time>
      </trkpt>
      <trkpt lat="45.00351" lon="0.7312">
        <ele>186.2</ele>
        <time>2020-01-02T10:06:49Z</time>
      </trkpt>
      <trkpt lat="45.00351" lon="0.73125">
        <ele>186.2</ele>
        <time>2020-01-02T10:06:50Z</time>
      </trkpt>
      <trkpt lat="45.0035" lon="0.73134">
        <ele>186.8</ele>
        <time>2020-01-02T10:06:52Z</time>
      </trkpt>
      <trkpt lat="45.0035" lon="0.73138">
        <ele>187.4</ele>
        <time>2020-01-02T10:06:53Z</time>
      </trkpt>
      <trkpt lat="45.00347" lon="0.73152">
        <ele>188.4</ele>
        <time>2020-01-02T10:06:56Z</time>
      </trkpt>
      <trkpt lat="45.00346" lon="0.73157">
        <ele>188.4</ele>
        <time>2020-01-02T10:06:57Z</time>
      </trkpt>
      <trkpt lat="45.00342" lon="0.7317">
        <ele>187</ele>
        <time>2020-01-02T10:07:00Z</time>
      </trkpt>
      <trkpt lat="45.00341" lon="0.73184">
        <ele>186.4</ele>
        <time>2020-01-02T10:07:03Z</time>
      </trkpt>
      <trkpt lat="45.00336" lon="0.73204">
        <ele>187.4</ele>
        <time>2020-01-02T10:07:08Z</time>
      </trkpt>
      <trkpt lat="45.0033" lon="0.73216">
        <ele>187.4</ele>
        <time>2020-01-02T10:07:11Z</time>
      </trkpt>
      <trkpt lat="45.00324" lon="0.73228">
        <ele>186</ele>
        <time>2020-01-02T10:07:14Z</time>
      </trkpt>
      <trkpt lat="45.00321" lon="0.73232">
        <ele>185.8</ele>
        <time>2020-01-02T10:07:15Z</time>
      </trkpt>
      <trkpt lat="45.00308" lon="0.73254">
        <ele>185.4</ele>
        <time>2020-01-02T10:07:21Z</time>
      </trkpt>
      <trkpt lat="45.00305" lon="0.73257">
        <ele>184.6</ele>
        <time>2020-01-02T10:07:22Z</time>
      </trkpt>
      <trkpt lat="45.00293" lon="0.73281">
        <ele>184.6</ele>
        <time>2020-01-02T10:07:28Z</time>
      </trkpt>
      <trkpt lat="45.00289" lon="0.7329">
        <ele>185.6</ele>
        <time>2020-01-02T10:07:30Z</time>
      </trkpt>
      <trkpt lat="45.00287" lon="0.73294">
        <ele>185.8</ele>
        <time>2020-01-02T10:07:31Z</time>
      </trkpt>
      <trkpt lat="45.0028" lon="0.73309">
        <ele>184.8</ele>
        <time>2020-01-02T10:07:35Z</time>
      </trkpt>
      <trkpt lat="45.00279" lon="0.73314">
        <ele>184.4</ele>
        <time>2020-01-02T10:07:36Z</time>
      </trkpt>
      <trkpt lat="45.00274" lon="0.73327">
        <ele>184.4</ele>
        <time>2020-01-02T10:07:39Z</time>
      </trkpt>
      <trkpt lat="45.00269" lon="0.73346">
        <ele>185.6</ele>
        <time>2020-01-02T10:07:43Z</time>
      </trkpt>
      <trkpt lat="45.0026" lon="0.73373">
        <ele>184.8</ele>
        <time>2020-01-02T10:07:49Z</time>
      </trkpt>
      <trkpt lat="45.00253" lon="0.73394">
        <ele>186</ele>
        <time>2020-01-02T10:07:54Z</time>
      </trkpt>
      <trkpt lat="45.0025" lon="0.73402">
        <ele>186.6</ele>
        <time>2020-01-02T10:07:56Z</time>
      </trkpt>
      <trkpt lat="45.00249" lon="0.73406">
        <ele>187</ele>
        <time>2020-01-02T10:07:57Z</time>
      </trkpt>
      <trkpt lat="45.00246" lon="0.73415">
        <ele>188</ele>
        <time>2020-01-02T10:07:59Z</time>
      </trkpt>
      <trkpt lat="45.00243" lon="0.73423">
        <ele>189</ele>
        <time>2020-01-02T10:08:01Z</time>
      </trkpt>
      <trkpt lat="45.00241" lon="0.73431">
        <ele>190</ele>
        <time>2020-01-02T10:08:03Z</time>
      </trkpt>
      <trkpt lat="45.00239" lon="0.73435">
        <ele>190.2</ele>
        <time>2020-01-02T10:08:04Z</time>
      </trkpt>
      <trkpt lat="45.00232" lon="0.73455">
        <ele>189</ele>
        <time>2020-01-02T10:08:09Z</time>
      </trkpt>
      <trkpt lat="45.00232" lon="0.73459">
        <ele>188.8</ele>
        <time>2020-01-02T10:08:10Z</time>
      </trkpt>
      <trkpt lat="45.00228" lon="0.73476">
        <ele>189.6</ele>
        <time>2020-01-02T10:08:15Z</time>
      </trkpt>
      <trkpt lat="45.00228" lon="0.7348">
        <ele>190.2</ele>
        <time>2020-01-02T10:08:16Z</time>
      </trkpt>
      <trkpt lat="45.0023" lon="0.73484">
        <ele>190.6</ele>
        <time>2020-01-02T10:08:18Z</time>
      </trkpt>
      <trkpt lat="45.00233" lon="0.73485">
        <ele>190.6</ele>
        <time>2020-01-02T10:08:19Z</time>
      </trkpt>
      <trkpt lat="45.00238" lon="0.73486">
        <ele>190.4</ele>
        <time>2020-01-02T10:08:21Z</time>
      </trkpt>
      <trkpt lat="45.00247" lon="0.73486">
        <ele>190.4</ele>
        <time>2020-01-02T10:08:24Z</time>
      </trkpt>
      <trkpt lat="45.00259" lon="0.73486">
        <ele>190.8</ele>
        <time>2020-01-02T10:08:28Z</time>
      </trkpt>
      <trkpt lat="45.00262" lon="0.73487">
        <ele>190.8</ele>
        <time>2020-01-02T10:08:29Z</time>
      </trkpt>
      <trkpt lat="45.0027" lon="0.73489">
        <ele>190.6</ele>
        <time>2020-01-02T10:08:32Z</time>
      </trkpt>
      <trkpt lat="45.00279" lon="0.73498">
        <ele>190.4</ele>
        <time>2020-01-02T10:08:35Z</time>
      </trkpt>
      <trkpt lat="45.00296" lon="0.73511">
        <ele>190.4</ele>
        <time>2020-01-02T10:08:41Z</time>
      </trkpt>
      <trkpt lat="45.00302" lon="0.73514">
        <ele>189.8</ele>
        <time>2020-01-02T10:08:43Z</time>
      </trkpt>
      <trkpt lat="45.0031" lon="0.7352">
        <ele>189.2</ele>
        <time>2020-01-02T10:08:46Z</time>
      </trkpt>
      <trkpt lat="45.00313" lon="0.73521">
        <ele>189.2</ele>
        <time>2020-01-02T10:08:47Z</time>
      </trkpt>
      <trkpt lat="45.0032" lon="0.73525">
        <ele>189</ele>
        <time>2020-01-02T10:08:49Z</time>
      </trkpt>
      <trkpt lat="45.00332" lon="0.73535">
        <ele>187.8</ele>
        <time>2020-01-02T10:08:53Z</time>
      </trkpt>
      <trkpt lat="45.00338" lon="0.73541">
        <ele>187.2</ele>
        <time>2020-01-02T10:08:55Z</time>
      </trkpt>
      <trkpt lat="45.00347" lon="0.7355">
        <ele>186.4</ele>
        <time>2020-01-02T10:08:58Z</time>
      </trkpt>
      <trkpt lat="45.00356" lon="0.73559">
        <ele>185.4</ele>
        <time>2020-01-02T10:09:01Z</time>
      </trkpt>
      <trkpt lat="45.00359" lon="0.73562">
        <ele>185.2</ele>
        <time>2020-01-02T10:09:02Z</time>
      </trkpt>
      <trkpt lat="45.00376" lon="0.73575">
        <ele>185.2</ele>
        <time>2020-01-02T10:09:08Z</time>
      </trkpt>
      <trkpt lat="45.0039" lon="0.73589">
        <ele>184.6</ele>
        <time>2020-01-02T10:09:13Z</time>
      </trkpt>
      <trkpt lat="45.00395" lon="0.73594">
        <ele>184.4</ele>
        <time>2020-01-02T10:09:15Z</time>
      </trkpt>
      <trkpt lat="45.00411" lon="0.73606">
        <ele>185.6</ele>
        <time>2020-01-02T10:09:21Z</time>
      </trkpt>
      <trkpt lat="45.00427" lon="0.7362">
        <ele>184.8</ele>
        <time>2020-01-02T10:09:27Z</time>
      </trkpt>
      <trkpt lat="45.00436" lon="0.73625">
        <ele>184.2</ele>
        <time>2020-01-02T10:09:30Z</time>
      </trkpt>
      <trkpt lat="45.00442" lon="0.73628">
        <ele>184</ele>
        <time>2020-01-02T10:09:32Z</time>
      </trkpt>
      <trkpt lat="45.00452" lon="0.73632">
        <ele>183.2</ele>
        <time>2020-01-02T10:09:35Z</time>
      </trkpt>
      <trkpt lat="45.00462" lon="0.73637">
        <ele>182.8</ele>
        <time>2020-01-02T10:09:38Z</time>
      </trkpt>
      <trkpt lat="45.00472" lon="0.73644">
        <ele>182</ele>
        <time>2020-01-02T10:09:41Z</time>
      </trkpt>
      <trkpt lat="45.00482" lon="0.73652">
        <ele>181</ele>
        <time>2020-01-02T10:09:44Z</time>
      </trkpt>
      <trkpt lat="45.00485" lon="0.73654">
        <ele>180.6</ele>
        <time>2020-01-02T10:09:45Z</time>
      </trkpt>
      <trkpt lat="45.00496" lon="0.73661">
        <ele>179.4</ele>
        <time>2020-01-02T10:09:47Z</time>
      </trkpt>
      <trkpt lat="45.00509" lon="0.73668">
        <ele>178.4</ele>
        <time>2020-01-02T10:09:52Z</time>
      </trkpt>
      <trkpt lat="45.00522" lon="0.73675">
        <ele>177.4</ele>
        <time>2020-01-02T10:09:56Z</time>
      </trkpt>
      <trkpt lat="45.00536" lon="0.73684">
        <ele>177</ele>
        <time>2020-01-02T10:10:00Z</time>
      </trkpt>
      <trkpt lat="45.00542" lon="0.73686">
        <ele>176.8</ele>
        <time>2020-01-02T10:10:02Z</time>
      </trkpt>
      <trkpt lat="45.00548" lon="0.73689">
        <ele>176.4</ele>
        <time>2020-01-02T10:10:04Z</time>
      </trkpt>
      <trkpt lat="45.00555" lon="0.73691">
        <ele>176.2</ele>
        <time>2020-01-02T10:10:06Z</time>
      </trkpt>
      <trkpt lat="45.00567" lon="0.73699">
        <ele>175.2</ele>
        <time>2020-01-02T10:10:10Z</time>
      </trkpt>
      <trkpt lat="45.00573" lon="0.73705">
        <ele>174.6</ele>
        <time>2020-01-02T10:10:12Z</time>
      </trkpt>
      <trkpt lat="45.00576" lon="0.73709">
        <ele>173.8</ele>
        <time>2020-01-02T10:10:13Z</time>
      </trkpt>
      <trkpt lat="45.00584" lon="0.7372">
        <ele>172.8</ele>
        <time>2020-01-02T10:10:16Z</time>
      </trkpt>
      <trkpt lat="45.00587" lon="0.73723">
        <ele>172.2</ele>
        <time>2020-01-02T10:10:17Z</time>
      </trkpt>
      <trkpt lat="45.00596" lon="0.73731">
        <ele>171.2</ele>
        <time>2020-01-02T10:10:20Z</time>
      </trkpt>
      <trkpt lat="45.00599" lon="0.73734">
        <ele>171</ele>
        <time>2020-01-02T10:10:21Z</time>
      </trkpt>
      <trkpt lat="45.00604" lon="0.73739">
        <ele>170.8</ele>
        <time>2020-01-02T10:10:23Z</time>
      </trkpt>
      <trkpt lat="45.00615" lon="0.73751">
        <ele>170</ele>
        <time>2020-01-02T10:10:27Z</time>
      </trkpt>
      <trkpt lat="45.0062" lon="0.73757">
        <ele>169.8</ele>
        <time>2020-01-02T10:10:29Z</time>
      </trkpt>
      <trkpt lat="45.00628" lon="0.73775">
        <ele>170.6</ele>
        <time>2020-01-02T10:10:34Z</time>
      </trkpt>
      <trkpt lat="45.00629" lon="0.73801">
        <ele>170</ele>
        <time>2020-01-02T10:10:39Z</time>
      </trkpt>
      <trkpt lat="45.00627" lon="0.73813">
        <ele>171</ele>
        <time>2020-01-02T10:10:42Z</time>
      </trkpt>
      <trkpt lat="45.00626" lon="0.73823">
        <ele>172.6</ele>
        <time>2020-01-02T10:10:44Z</time>
      </trkpt>
      <trkpt lat="45.00622" lon="0.7385">
        <ele>172</ele>
        <time>2020-01-02T10:10:50Z</time>
      </trkpt>
      <trkpt lat="45.00619" lon="0.73879">
        <ele>173</ele>
        <time>2020-01-02T10:10:56Z</time>
      </trkpt>
      <trkpt lat="45.00619" lon="0.73883">
        <ele>173.6</ele>
        <time>2020-01-02T10:10:57Z</time>
      </trkpt>
      <trkpt lat="45.00618" lon="0.73891">
        <ele>174.6</ele>
        <time>2020-01-02T10:10:59Z</time>
      </trkpt>
      <trkpt lat="45.00615" lon="0.73915">
        <ele>174.6</ele>
        <time>2020-01-02T10:11:05Z</time>
      </trkpt>
      <trkpt lat="45.00611" lon="0.7394">
        <ele>174.6</ele>
        <time>2020-01-02T10:11:11Z</time>
      </trkpt>
      <trkpt lat="45.0061" lon="0.73951">
        <ele>176</ele>
        <time>2020-01-02T10:11:14Z</time>
      </trkpt>
      <trkpt lat="45.0061" lon="0.73957">
        <ele>177.6</ele>
        <time>2020-01-02T10:11:16Z</time>
      </trkpt>
      <trkpt lat="45.0061" lon="0.73961">
        <ele>178.2</ele>
        <time>2020-01-02T10:11:17Z</time>
      </trkpt>
      <trkpt lat="45.0061" lon="0.73964">
        <ele>178.6</ele>
        <time>2020-01-02T10:11:18Z</time>
      </trkpt>
      <trkpt lat="45.00613" lon="0.73982">
        <ele>179.2</ele>
        <time>2020-01-02T10:11:23Z</time>
      </trkpt>
      <trkpt lat="45.00613" lon="0.73985">
        <ele>179.2</ele>
        <time>2020-01-02T10:11:24Z</time>
      </trkpt>
      <trkpt lat="45.00617" lon="0.74004">
        <ele>180</ele>
        <time>2020-01-02T10:11:30Z</time>
      </trkpt>
      <trkpt lat="45.00617" lon="0.74007">
        <ele>180.4</ele>
        <time>2020-01-02T10:11:31Z</time>
      </trkpt>
      <trkpt lat="45.00619" lon="0.74014">
        <ele>181.2</ele>
        <time>2020-01-02T10:11:33Z</time>
      </trkpt>
      <trkpt lat="45.0062" lon="0.74023">
        <ele>183</ele>
        <time>2020-01-02T10:11:36Z</time>
      </trkpt>
      <trkpt lat="45.00622" lon="0.74028">
        <ele>183.8</ele>
        <time>2020-01-02T10:11:38Z</time>
      </trkpt>
      <trkpt lat="45.00623" lon="0.74031">
        <ele>184.2</ele>
        <time>2020-01-02T10:11:39Z</time>
      </trkpt>
      <trkpt lat="45.00626" lon="0.74038">
        <ele>185.6</ele>
        <time>2020-01-02T10:11:41Z</time>
      </trkpt>
      <trkpt lat="45.0063" lon="0.74046">
        <ele>186.8</ele>
        <time>2020-01-02T10:11:45Z</time>
      </trkpt>
      <trkpt lat="45.00645" lon="0.7406">
        <ele>186.6</ele>
        <time>2020-01-02T10:11:51Z</time>
      </trkpt>
      <trkpt lat="45.0065" lon="0.74061">
        <ele>186.8</ele>
        <time>2020-01-02T10:11:53Z</time>
      </trkpt>
      <trkpt lat="45.00658" lon="0.74065">
        <ele>187.4</ele>
        <time>2020-01-02T10:11:56Z</time>
      </trkpt>
      <trkpt lat="45.00663" lon="0.74067">
        <ele>187.8</ele>
        <time>2020-01-02T10:11:58Z</time>
      </trkpt>
      <trkpt lat="45.0067" lon="0.74071">
        <ele>189</ele>
        <time>2020-01-02T10:12:01Z</time>
      </trkpt>
      <trkpt lat="45.00674" lon="0.74074">
        <ele>189.6</ele>
        <time>2020-01-02T10:12:03Z</time>
      </trkpt>
      <trkpt lat="45.00682" lon="0.74076">
        <ele>190.4</ele>
        <time>2020-01-02T10:12:06Z</time>
      </trkpt>
      <trkpt lat="45.00687" lon="0.74074">
        <ele>191.4</ele>
        <time>2020-01-02T10:12:08Z</time>
      </trkpt>
      <trkpt lat="45.00689" lon="0.74072">
        <ele>191.6</ele>
        <time>2020-01-02T10:12:09Z</time>
      </trkpt>
      <trkpt lat="45.00697" lon="0.74068">
        <ele>192.8</ele>
        <time>2020-01-02T10:12:12Z</time>
      </trkpt>
      <trkpt lat="45.00707" lon="0.74061">
        <ele>194.2</ele>
        <time>2020-01-02T10:12:16Z</time>
      </trkpt>
      <trkpt lat="45.00723" lon="0.74047">
        <ele>195</ele>
        <time>2020-01-02T10:12:23Z</time>
      </trkpt>
      <trkpt lat="45.00725" lon="0.74044">
        <ele>195.2</ele>
        <time>2020-01-02T10:12:24Z</time>
      </trkpt>
      <trkpt lat="45.00735" lon="0.74035">
        <ele>196.6</ele>
        <time>2020-01-02T10:12:29Z</time>
      </trkpt>
      <trkpt lat="45.0074" lon="0.74031">
        <ele>197.2</ele>
        <time>2020-01-02T10:12:31Z</time>
      </trkpt>
      <trkpt lat="45.00744" lon="0.74027">
        <ele>197.6</ele>
        <time>2020-01-02T10:12:33Z</time>
      </trkpt>
      <trkpt lat="45.00752" lon="0.74024">
        <ele>197.8</ele>
        <time>2020-01-02T10:12:36Z</time>
      </trkpt>
      <trkpt lat="45.0076" lon="0.7402">
        <ele>198.8</ele>
        <time>2020-01-02T10:12:39Z</time>
      </trkpt>
      <trkpt lat="45.00768" lon="0.74019">
        <ele>200</ele>
        <time>2020-01-02T10:12:42Z</time>
      </trkpt>
      <trkpt lat="45.00782" lon="0.74019">
        <ele>201.2</ele>
        <time>2020-01-02T10:12:47Z</time>
      </trkpt>
      <trkpt lat="45.00784" lon="0.74019">
        <ele>201.4</ele>
        <time>2020-01-02T10:12:48Z</time>
      </trkpt>
      <trkpt lat="45.00794" lon="0.74023">
        <ele>202.2</ele>
        <time>2020-01-02T10:12:52Z</time>
      </trkpt>
      <trkpt lat="45.00804" lon="0.74025">
        <ele>203.2</ele>
        <time>2020-01-02T10:12:56Z</time>
      </trkpt>
      <trkpt lat="45.00807" lon="0.74025">
        <ele>203.6</ele>
        <time>2020-01-02T10:12:57Z</time>
      </trkpt>
      <trkpt lat="45.00812" lon="0.74025">
        <ele>204.6</ele>
        <time>2020-01-02T10:12:59Z</time>
      </trkpt>
      <trkpt lat="45.00824" lon="0.74026">
        <ele>205.8</ele>
        <time>2020-01-02T10:13:03Z</time>
      </trkpt>
      <trkpt lat="45.00837" lon="0.74027">
        <ele>204.4</ele>
        <time>2020-01-02T10:13:08Z</time>
      </trkpt>
      <trkpt lat="45.00846" lon="0.74027">
        <ele>203.8</ele>
        <time>2020-01-02T10:13:11Z</time>
      </trkpt>
      <trkpt lat="45.00853" lon="0.74027">
        <ele>203.8</ele>
        <time>2020-01-02T10:13:14Z</time>
      </trkpt>
      <trkpt lat="45.00856" lon="0.74026">
        <ele>204</ele>
        <time>2020-01-02T10:13:15Z</time>
      </trkpt>
      <trkpt lat="45.00857" lon="0.74023">
        <ele>204.2</ele>
        <time>2020-01-02T10:13:16Z</time>
      </trkpt>
      <trkpt lat="45.00859" lon="0.74017">
        <ele>205</ele>
        <time>2020-01-02T10:13:18Z</time>
      </trkpt>
      <trkpt lat="45.00858" lon="0.74009">
        <ele>205.4</ele>
        <time>2020-01-02T10:13:20Z</time>
      </trkpt>
      <trkpt lat="45.00857" lon="0.74004">
        <ele>205.4</ele>
        <time>2020-01-02T10:13:21Z</time>
      </trkpt>
      <trkpt lat="45.00854" lon="0.7399">
        <ele>204.4</ele>
        <time>2020-01-02T10:13:25Z</time>
      </trkpt>
      <trkpt lat="45.00853" lon="0.73986">
        <ele>204.2</ele>
        <time>2020-01-02T10:13:26Z</time>
      </trkpt>
      <trkpt lat="45.00851" lon="0.73964">
        <ele>203.8</ele>
        <time>2020-01-02T10:13:31Z</time>
      </trkpt>
      <trkpt lat="45.00854" lon="0.73942">
        <ele>205.4</ele>
        <time>2020-01-02T10:13:36Z</time>
      </trkpt>
      <trkpt lat="45.00856" lon="0.73929">
        <ele>206.2</ele>
        <time>2020-01-02T10:13:39Z</time>
      </trkpt>
      <trkpt lat="45.00859" lon="0.7391">
        <ele>204.2</ele>
        <time>2020-01-02T10:13:43Z</time>
      </trkpt>
      <trkpt lat="45.0086" lon="0.73905">
        <ele>203.8</ele>
        <time>2020-01-02T10:13:44Z</time>
      </trkpt>
      <trkpt lat="45.00865" lon="0.73879">
        <ele>203.6</ele>
        <time>2020-01-02T10:13:50Z</time>
      </trkpt>
      <trkpt lat="45.00865" lon="0.73875">
        <ele>204</ele>
        <time>2020-01-02T10:13:51Z</time>
      </trkpt>
      <trkpt lat="45.00871" lon="0.73849">
        <ele>205</ele>
        <time>2020-01-02T10:13:57Z</time>
      </trkpt>
      <trkpt lat="45.00875" lon="0.73823">
        <ele>203.4</ele>
        <time>2020-01-02T10:14:03Z</time>
      </trkpt>
      <trkpt lat="45.00878" lon="0.73796">
        <ele>204.2</ele>
        <time>2020-01-02T10:14:09Z</time>
      </trkpt>
      <trkpt lat="45.00878" lon="0.73788">
        <ele>203.4</ele>
        <time>2020-01-02T10:14:11Z</time>
      </trkpt>
      <trkpt lat="45.00879" lon="0.73779">
        <ele>203.2</ele>
        <time>2020-01-02T10:14:13Z</time>
      </trkpt>
      <trkpt lat="45.00883" lon="0.73767">
        <ele>203.8</ele>
        <time>2020-01-02T10:14:16Z</time>
      </trkpt>
      <trkpt lat="45.00898" lon="0.73757">
        <ele>202.6</ele>
        <time>2020-01-02T10:14:21Z</time>
      </trkpt>
      <trkpt lat="45.00905" lon="0.73755">
        <ele>202</ele>
        <time>2020-01-02T10:14:23Z</time>
      </trkpt>
      <trkpt lat="45.00918" lon="0.7375">
        <ele>202.4</ele>
        <time>2020-01-02T10:14:27Z</time>
      </trkpt>
      <trkpt lat="45.00936" lon="0.73739">
        <ele>201.2</ele>
        <time>2020-01-02T10:14:33Z</time>
      </trkpt>
      <trkpt lat="45.00939" lon="0.73736">
        <ele>201.4</ele>
        <time>2020-01-02T10:14:34Z</time>
      </trkpt>
      <trkpt lat="45.0095" lon="0.73719">
        <ele>201.2</ele>
        <time>2020-01-02T10:14:39Z</time>
      </trkpt>
      <trkpt lat="45.00951" lon="0.73715">
        <ele>200.6</ele>
        <time>2020-01-02T10:14:40Z</time>
      </trkpt>
      <trkpt lat="45.00959" lon="0.73692">
        <ele>200.2</ele>
        <time>2020-01-02T10:14:45Z</time>
      </trkpt>
      <trkpt lat="45.00967" lon="0.73665">
        <ele>199.6</ele>
        <time>2020-01-02T10:14:51Z</time>
      </trkpt>
      <trkpt lat="45.00968" lon="0.7366">
        <ele>199.6</ele>
        <time>2020-01-02T10:14:52Z</time>
      </trkpt>
      <trkpt lat="45.00973" lon="0.73647">
        <ele>200.4</ele>
        <time>2020-01-02T10:14:55Z</time>
      </trkpt>
      <trkpt lat="45.00982" lon="0.73626">
        <ele>198.8</ele>
        <time>2020-01-02T10:15:00Z</time>
      </trkpt>
      <trkpt lat="45.00984" lon="0.73622">
        <ele>198.6</ele>
        <time>2020-01-02T10:15:01Z</time>
      </trkpt>
      <trkpt lat="45.00992" lon="0.73595">
        <ele>198.6</ele>
        <time>2020-01-02T10:15:07Z</time>
      </trkpt>
      <trkpt lat="45.00997" lon="0.73578">
        <ele>197.4</ele>
        <time>2020-01-02T10:15:11Z</time>
      </trkpt>
      <trkpt lat="45.01001" lon="0.73565">
        <ele>197.2</ele>
        <time>2020-01-02T10:15:14Z</time>
      </trkpt>
      <trkpt lat="45.01006" lon="0.73552">
        <ele>198.4</ele>
        <time>2020-01-02T10:15:17Z</time>
      </trkpt>
      <trkpt lat="45.01012" lon="0.73535">
        <ele>199.2</ele>
        <time>2020-01-02T10:15:21Z</time>
      </trkpt>
      <trkpt lat="45.0102" lon="0.73516">
        <ele>197.4</ele>
        <time>2020-01-02T10:15:26Z</time>
      </trkpt>
      <trkpt lat="45.01023" lon="0.73508">
        <ele>197</ele>
        <time>2020-01-02T10:15:28Z</time>
      </trkpt>
      <trkpt lat="45.01033" lon="0.73485">
        <ele>198.4</ele>
        <time>2020-01-02T10:15:34Z</time>
      </trkpt>
      <trkpt lat="45.01035" lon="0.73481">
        <ele>198.8</ele>
        <time>2020-01-02T10:15:35Z</time>
      </trkpt>
      <trkpt lat="45.01037" lon="0.73478">
        <ele>199</ele>
        <time>2020-01-02T10:15:36Z</time>
      </trkpt>
      <trkpt lat="45.01045" lon="0.73462">
        <ele>197.6</ele>
        <time>2020-01-02T10:15:40Z</time>
      </trkpt>
      <trkpt lat="45.01052" lon="0.73446">
        <ele>197</ele>
        <time>2020-01-02T10:15:44Z</time>
      </trkpt>
      <trkpt lat="45.01059" lon="0.73427">
        <ele>198.6</ele>
        <time>2020-01-02T10:15:49Z</time>
      </trkpt>
      <trkpt lat="45.01059" lon="0.73425">
        <ele>198.8</ele>
        <time>2020-01-02T10:15:50Z</time>
      </trkpt>
      <trkpt lat="45.01058" lon="0.73423">
        <ele>198.6</ele>
        <time>2020-01-02T10:15:51Z</time>
      </trkpt>
      <trkpt lat="45.01057" lon="0.73421">
        <ele>198.2</ele>
        <time>2020-01-02T10:15:52Z</time>
      </trkpt>
      <trkpt lat="45.01055" lon="0.7342">
        <ele>198</ele>
        <time>2020-01-02T10:15:53Z</time>
      </trkpt>
      <trkpt lat="45.01052" lon="0.7342">
        <ele>197.6</ele>
        <time>2020-01-02T10:15:54Z</time>
      </trkpt>
      <trkpt lat="45.01046" lon="0.73424">
        <ele>197.4</ele>
        <time>2020-01-02T10:15:56Z</time>
      </trkpt>
      <trkpt lat="45.01038" lon="0.73433">
        <ele>197.4</ele>
        <time>2020-01-02T10:15:59Z</time>
      </trkpt>
      <trkpt lat="45.01032" lon="0.73439">
        <ele>197.4</ele>
        <time>2020-01-02T10:16:01Z</time>
      </trkpt>
      <trkpt lat="45.01024" lon="0.73448">
        <ele>196.6</ele>
        <time>2020-01-02T10:16:05Z</time>
      </trkpt>
      <trkpt lat="45.0102" lon="0.73451">
        <ele>196.2</ele>
        <time>2020-01-02T10:16:07Z</time>
      </trkpt>
      <trkpt lat="45.01006" lon="0.73458">
        <ele>196.2</ele>
        <time>2020-01-02T10:16:11Z</time>
      </trkpt>
      <trkpt lat="45.01003" lon="0.73459">
        <ele>195.8</ele>
        <time>2020-01-02T10:16:12Z</time>
      </trkpt>
      <trkpt lat="45.00995" lon="0.73461">
        <ele>195</ele>
        <time>2020-01-02T10:16:14Z</time>
      </trkpt>
      <trkpt lat="45.00986" lon="0.73462">
        <ele>194</ele>
        <time>2020-01-02T10:16:16Z</time>
      </trkpt>
      <trkpt lat="45.00977" lon="0.73463">
        <ele>193</ele>
        <time>2020-01-02T10:16:18Z</time>
      </trkpt>
      <trkpt lat="45.00973" lon="0.73463">
        <ele>192.8</ele>
        <time>2020-01-02T10:16:19Z</time>
      </trkpt>
      <trkpt lat="45.00957" lon="0.73455">
        <ele>191.6</ele>
        <time>2020-01-02T10:16:23Z</time>
      </trkpt>
      <trkpt lat="45.00948" lon="0.73444">
        <ele>190.6</ele>
        <time>2020-01-02T10:16:26Z</time>
      </trkpt>
      <trkpt lat="45.00941" lon="0.73431">
        <ele>190.2</ele>
        <time>2020-01-02T10:16:29Z</time>
      </trkpt>
      <trkpt lat="45.00936" lon="0.73423">
        <ele>189.4</ele>
        <time>2020-01-02T10:16:31Z</time>
      </trkpt>
      <trkpt lat="45.00931" lon="0.73416">
        <ele>188.2</ele>
        <time>2020-01-02T10:16:33Z</time>
      </trkpt>
      <trkpt lat="45.00923" lon="0.73406">
        <ele>188</ele>
        <time>2020-01-02T10:16:36Z</time>
      </trkpt>
      <trkpt lat="45.00911" lon="0.73389">
        <ele>188.8</ele>
        <time>2020-01-02T10:16:41Z</time>
      </trkpt>
      <trkpt lat="45.00899" lon="0.73373">
        <ele>187.4</ele>
        <time>2020-01-02T10:16:46Z</time>
      </trkpt>
      <trkpt lat="45.00883" lon="0.73354">
        <ele>187</ele>
        <time>2020-01-02T10:16:52Z</time>
      </trkpt>
      <trkpt lat="45.00871" lon="0.73335">
        <ele>186.6</ele>
        <time>2020-01-02T10:16:57Z</time>
      </trkpt>
      <trkpt lat="45.0086" lon="0.73319">
        <ele>187.4</ele>
        <time>2020-01-02T10:17:02Z</time>
      </trkpt>
      <trkpt lat="45.00849" lon="0.733">
        <ele>186.2</ele>
        <time>2020-01-02T10:17:07Z</time>
      </trkpt>
      <trkpt lat="45.00844" lon="0.73293">
        <ele>186.8</ele>
        <time>2020-01-02T10:17:09Z</time>
      </trkpt>
      <trkpt lat="45.00843" lon="0.73289">
        <ele>187.4</ele>
        <time>2020-01-02T10:17:10Z</time>
      </trkpt>
      <trkpt lat="45.00837" lon="0.73283">
        <ele>188.2</ele>
        <time>2020-01-02T10:17:12Z</time>
      </trkpt>
      <trkpt lat="45.00822" lon="0.73268">
        <ele>188</ele>
        <time>2020-01-02T10:17:17Z</time>
      </trkpt>
      <trkpt lat="45.00814" lon="0.73263">
        <ele>187</ele>
        <time>2020-01-02T10:17:20Z</time>
      </trkpt>
      <trkpt lat="45.00808" lon="0.73259">
        <ele>186.6</ele>
        <time>2020-01-02T10:17:22Z</time>
      </trkpt>
      <trkpt lat="45.00794" lon="0.73252">
        <ele>186.6</ele>
        <time>2020-01-02T10:17:27Z</time>
      </trkpt>
      <trkpt lat="45.0078" lon="0.7324">
        <ele>186</ele>
        <time>2020-01-02T10:17:32Z</time>
      </trkpt>
      <trkpt lat="45.00778" lon="0.73236">
        <ele>185.8</ele>
        <time>2020-01-02T10:17:33Z</time>
      </trkpt>
      <trkpt lat="45.00773" lon="0.73223">
        <ele>184.6</ele>
        <time>2020-01-02T10:17:36Z</time>
      </trkpt>
      <trkpt lat="45.00771" lon="0.73218">
        <ele>184.4</ele>
        <time>2020-01-02T10:17:37Z</time>
      </trkpt>
      <trkpt lat="45.0077" lon="0.73202">
        <ele>183.2</ele>
        <time>2020-01-02T10:17:40Z</time>
      </trkpt>
      <trkpt lat="45.00771" lon="0.73197">
        <ele>182.8</ele>
        <time>2020-01-02T10:17:41Z</time>
      </trkpt>
      <trkpt lat="45.00769" lon="0.73187">
        <ele>182.4</ele>
        <time>2020-01-02T10:17:43Z</time>
      </trkpt>
      <trkpt lat="45.00767" lon="0.73184">
        <ele>181.8</ele>
        <time>2020-01-02T10:17:44Z</time>
      </trkpt>
      <trkpt lat="45.0076" lon="0.73181">
        <ele>180.6</ele>
        <time>2020-01-02T10:17:46Z</time>
      </trkpt>
      <trkpt lat="45.00753" lon="0.7318">
        <ele>179.6</ele>
        <time>2020-01-02T10:17:48Z</time>
      </trkpt>
      <trkpt lat="45.0075" lon="0.73181">
        <ele>179.2</ele>
        <time>2020-01-02T10:17:49Z</time>
      </trkpt>
      <trkpt lat="45.00744" lon="0.73183">
        <ele>178.6</ele>
        <time>2020-01-02T10:17:51Z</time>
      </trkpt>
      <trkpt lat="45.00742" lon="0.73185">
        <ele>178.2</ele>
        <time>2020-01-02T10:17:52Z</time>
      </trkpt>
      <trkpt lat="45.00739" lon="0.73186">
        <ele>177.8</ele>
        <time>2020-01-02T10:17:53Z</time>
      </trkpt>
      <trkpt lat="45.00732" lon="0.73191">
        <ele>176.6</ele>
        <time>2020-01-02T10:17:56Z</time>
      </trkpt>
      <trkpt lat="45.00728" lon="0.73193">
        <ele>176</ele>
        <time>2020-01-02T10:17:57Z</time>
      </trkpt>
      <trkpt lat="45.00725" lon="0.73194">
        <ele>175.6</ele>
        <time>2020-01-02T10:17:58Z</time>
      </trkpt>
      <trkpt lat="45.00711" lon="0.73199">
        <ele>174</ele>
        <time>2020-01-02T10:18:02Z</time>
      </trkpt>
      <trkpt lat="45.007" lon="0.73204">
        <ele>173</ele>
        <time>2020-01-02T10:18:05Z</time>
      </trkpt>
      <trkpt lat="45.00693" lon="0.73207">
        <ele>171.8</ele>
        <time>2020-01-02T10:18:07Z</time>
      </trkpt>
      <trkpt lat="45.00687" lon="0.73209">
        <ele>170.8</ele>
        <time>2020-01-02T10:18:09Z</time>
      </trkpt>
      <trkpt lat="45.00685" lon="0.7321">
        <ele>170.8</ele>
        <time>2020-01-02T10:18:10Z</time>
      </trkpt>
      <trkpt lat="45.00678" lon="0.73214">
        <ele>169.4</ele>
        <time>2020-01-02T10:18:12Z</time>
      </trkpt>
      <trkpt lat="45.00671" lon="0.73219">
        <ele>167.6</ele>
        <time>2020-01-02T10:18:14Z</time>
      </trkpt>
      <trkpt lat="45.00662" lon="0.73225">
        <ele>166.4</ele>
        <time>2020-01-02T10:18:17Z</time>
      </trkpt>
      <trkpt lat="45.00653" lon="0.73228">
        <ele>165.2</ele>
        <time>2020-01-02T10:18:19Z</time>
      </trkpt>
      <trkpt lat="45.00632" lon="0.73226">
        <ele>163.8</ele>
        <time>2020-01-02T10:18:24Z</time>
      </trkpt>
      <trkpt lat="45.00622" lon="0.73218">
        <ele>162.8</ele>
        <time>2020-01-02T10:18:27Z</time>
      </trkpt>
      <trkpt lat="45.00616" lon="0.73214">
        <ele>162.4</ele>
        <time>2020-01-02T10:18:29Z</time>
      </trkpt>
      <trkpt lat="45.00608" lon="0.73206">
        <ele>163.6</ele>
        <time>2020-01-02T10:18:32Z</time>
      </trkpt>
      <trkpt lat="45.00606" lon="0.73201">
        <ele>164</ele>
        <time>2020-01-02T10:18:33Z</time>
      </trkpt>
      <trkpt lat="45.00603" lon="0.73198">
        <ele>164</ele>
        <time>2020-01-02T10:18:34Z</time>
      </trkpt>
      <trkpt lat="45.006" lon="0.73189">
        <ele>164.2</ele>
        <time>2020-01-02T10:18:36Z</time>
      </trkpt>
      <trkpt lat="45.00595" lon="0.73171">
        <ele>164.2</ele>
        <time>2020-01-02T10:18:41Z</time>
      </trkpt>
      <trkpt lat="45.00594" lon="0.73168">
        <ele>164.4</ele>
        <time>2020-01-02T10:18:42Z</time>
      </trkpt>
      <trkpt lat="45.00594" lon="0.73156">
        <ele>165</ele>
        <time>2020-01-02T10:18:45Z</time>
      </trkpt>
      <trkpt lat="45.00594" lon="0.73153">
        <ele>165.4</ele>
        <time>2020-01-02T10:18:46Z</time>
      </trkpt>
      <trkpt lat="45.00594" lon="0.7315">
        <ele>165.8</ele>
        <time>2020-01-02T10:18:47Z</time>
      </trkpt>
      <trkpt lat="45.00593" lon="0.73146">
        <ele>166.4</ele>
        <time>2020-01-02T10:18:48Z</time>
      </trkpt>
      <trkpt lat="45.00592" lon="0.73133">
        <ele>167.6</ele>
        <time>2020-01-02T10:18:51Z</time>
      </trkpt>
      <trkpt lat="45.0059" lon="0.73117">
        <ele>168.6</ele>
        <time>2020-01-02T10:18:54Z</time>
      </trkpt>
      <trkpt lat="45.00589" lon="0.73105">
        <ele>169.8</ele>
        <time>2020-01-02T10:18:57Z</time>
      </trkpt>
      <trkpt lat="45.00588" lon="0.73101">
        <ele>170</ele>
        <time>2020-01-02T10:18:58Z</time>
      </trkpt>
      <trkpt lat="45.00586" lon="0.73088">
        <ele>171.2</ele>
        <time>2020-01-02T10:19:01Z</time>
      </trkpt>
      <trkpt lat="45.00586" lon="0.73083">
        <ele>171.6</ele>
        <time>2020-01-02T10:19:02Z</time>
      </trkpt>
      <trkpt lat="45.00585" lon="0.73075">
        <ele>172.2</ele>
        <time>2020-01-02T10:19:04Z</time>
      </trkpt>
      <trkpt lat="45.00583" lon="0.7306">
        <ele>173.4</ele>
        <time>2020-01-02T10:19:08Z</time>
      </trkpt>
      <trkpt lat="45.00582" lon="0.73053">
        <ele>173.8</ele>
        <time>2020-01-02T10:19:10Z</time>
      </trkpt>
      <trkpt lat="45.00581" lon="0.73047">
        <ele>174.4</ele>
        <time>2020-01-02T10:19:12Z</time>
      </trkpt>
      <trkpt lat="45.00579" lon="0.7304">
        <ele>175.2</ele>
        <time>2020-01-02T10:19:14Z</time>
      </trkpt>
      <trkpt lat="45.00578" lon="0.73036">
        <ele>175.6</ele>
        <time>2020-01-02T10:19:15Z</time>
      </trkpt>
      <trkpt lat="45.00578" lon="0.73033">
        <ele>176</ele>
        <time>2020-01-02T10:19:16Z</time>
      </trkpt>
      <trkpt lat="45.00577" lon="0.73023">
        <ele>176.4</ele>
        <time>2020-01-02T10:19:19Z</time>
      </trkpt>
      <trkpt lat="45.00575" lon="0.73012">
        <ele>175.6</ele>
        <time>2020-01-02T10:19:22Z</time>
      </trkpt>
      <trkpt lat="45.00568" lon="0.7299">
        <ele>175</ele>
        <time>2020-01-02T10:19:28Z</time>
      </trkpt>
      <trkpt lat="45.00559" lon="0.72966">
        <ele>176.6</ele>
        <time>2020-01-02T10:19:34Z</time>
      </trkpt>
      <trkpt lat="45.00556" lon="0.72954">
        <ele>177.2</ele>
        <time>2020-01-02T10:19:37Z</time>
      </trkpt>
      <trkpt lat="45.00554" lon="0.7295">
        <ele>177.2</ele>
        <time>2020-01-02T10:19:38Z</time>
      </trkpt>
      <trkpt lat="45.0055" lon="0.72938">
        <ele>175.8</ele>
        <time>2020-01-02T10:19:41Z</time>
      </trkpt>
      <trkpt lat="45.00549" lon="0.72934">
        <ele>175.4</ele>
        <time>2020-01-02T10:19:42Z</time>
      </trkpt>
      <trkpt lat="45.00548" lon="0.7293">
        <ele>175.2</ele>
        <time>2020-01-02T10:19:43Z</time>
      </trkpt>
      <trkpt lat="45.00542" lon="0.72905">
        <ele>176</ele>
        <time>2020-01-02T10:19:49Z</time>
      </trkpt>
      <trkpt lat="45.00539" lon="0.72893">
        <ele>176.4</ele>
        <time>2020-01-02T10:19:52Z</time>
      </trkpt>
      <trkpt lat="45.00536" lon="0.72878">
        <ele>177.4</ele>
        <time>2020-01-02T10:19:56Z</time>
      </trkpt>
      <trkpt lat="45.00534" lon="0.72874">
        <ele>177.6</ele>
        <time>2020-01-02T10:19:57Z</time>
      </trkpt>
      <trkpt lat="45.00529" lon="0.7286">
        <ele>178.6</ele>
        <time>2020-01-02T10:20:01Z</time>
      </trkpt>
      <trkpt lat="45.00528" lon="0.72857">
        <ele>178.8</ele>
        <time>2020-01-02T10:20:02Z</time>
      </trkpt>
      <trkpt lat="45.00525" lon="0.72836">
        <ele>180</ele>
        <time>2020-01-02T10:20:07Z</time>
      </trkpt>
      <trkpt lat="45.00525" lon="0.72832">
        <ele>180.2</ele>
        <time>2020-01-02T10:20:08Z</time>
      </trkpt>
      <trkpt lat="45.00522" lon="0.72817">
        <ele>180.8</ele>
        <time>2020-01-02T10:20:12Z</time>
      </trkpt>
      <trkpt lat="45.00522" lon="0.72814">
        <ele>181.2</ele>
        <time>2020-01-02T10:20:13Z</time>
      </trkpt>
      <trkpt lat="45.0052" lon="0.72808">
        <ele>182</ele>
        <time>2020-01-02T10:20:15Z</time>
      </trkpt>
      <trkpt lat="45.00519" lon="0.72806">
        <ele>182.2</ele>
        <time>2020-01-02T10:20:16Z</time>
      </trkpt>
      <trkpt lat="45.00519" lon="0.72804">
        <ele>182.6</ele>
        <time>2020-01-02T10:20:17Z</time>
      </trkpt>
      <trkpt lat="45.00523" lon="0.72802">
        <ele>183.6</ele>
        <time>2020-01-02T10:20:19Z</time>
      </trkpt>
      <trkpt lat="45.00532" lon="0.72803">
        <ele>184</ele>
        <time>2020-01-02T10:20:22Z</time>
      </trkpt>
      <trkpt lat="45.00541" lon="0.728">
        <ele>184</ele>
        <time>2020-01-02T10:20:25Z</time>
      </trkpt>
      <trkpt lat="45.00561" lon="0.72791">
        <ele>184</ele>
        <time>2020-01-02T10:20:31Z</time>
      </trkpt>
      <trkpt lat="45.00564" lon="0.72789">
        <ele>183.4</ele>
        <time>2020-01-02T10:20:32Z</time>
      </trkpt>
      <trkpt lat="45.00573" lon="0.72784">
        <ele>182.4</ele>
        <time>2020-01-02T10:20:35Z</time>
      </trkpt>
      <trkpt lat="45.00586" lon="0.72778">
        <ele>182.4</ele>
        <time>2020-01-02T10:20:39Z</time>
      </trkpt>
      <trkpt lat="45.00598" lon="0.72772">
        <ele>183.4</ele>
        <time>2020-01-02T10:20:43Z</time>
      </trkpt>
      <trkpt lat="45.00601" lon="0.72771">
        <ele>183.4</ele>
        <time>2020-01-02T10:20:44Z</time>
      </trkpt>
      <trkpt lat="45.00611" lon="0.72767">
        <ele>183.8</ele>
        <time>2020-01-02T10:20:47Z</time>
      </trkpt>
      <trkpt lat="45.00626" lon="0.72761">
        <ele>182.4</ele>
        <time>2020-01-02T10:20:52Z</time>
      </trkpt>
      <trkpt lat="45.00633" lon="0.72758">
        <ele>182.2</ele>
        <time>2020-01-02T10:20:54Z</time>
      </trkpt>
      <trkpt lat="45.00651" lon="0.72752">
        <ele>182.4</ele>
        <time>2020-01-02T10:21:00Z</time>
      </trkpt>
      <trkpt lat="45.00656" lon="0.7275">
        <ele>182.4</ele>
        <time>2020-01-02T10:21:02Z</time>
      </trkpt>
      <trkpt lat="45.00674" lon="0.72743">
        <ele>183.4</ele>
        <time>2020-01-02T10:21:08Z</time>
      </trkpt>
      <trkpt lat="45.00678" lon="0.72741">
        <ele>183.6</ele>
        <time>2020-01-02T10:21:09Z</time>
      </trkpt>
      <trkpt lat="45.00688" lon="0.7273">
        <ele>184.2</ele>
        <time>2020-01-02T10:21:13Z</time>
      </trkpt>
      <trkpt lat="45.00694" lon="0.7272">
        <ele>185</ele>
        <time>2020-01-02T10:21:16Z</time>
      </trkpt>
      <trkpt lat="45.00699" lon="0.72708">
        <ele>186.2</ele>
        <time>2020-01-02T10:21:19Z</time>
      </trkpt>
      <trkpt lat="45.00705" lon="0.72696">
        <ele>187.2</ele>
        <time>2020-01-02T10:21:22Z</time>
      </trkpt>
      <trkpt lat="45.00707" lon="0.72692">
        <ele>187.4</ele>
        <time>2020-01-02T10:21:23Z</time>
      </trkpt>
      <trkpt lat="45.00715" lon="0.72677">
        <ele>186.2</ele>
        <time>2020-01-02T10:21:27Z</time>
      </trkpt>
      <trkpt lat="45.00719" lon="0.7267">
        <ele>185.6</ele>
        <time>2020-01-02T10:21:29Z</time>
      </trkpt>
      <trkpt lat="45.00725" lon="0.72647">
        <ele>185.6</ele>
        <time>2020-01-02T10:21:35Z</time>
      </trkpt>
      <trkpt lat="45.00724" lon="0.72624">
        <ele>187</ele>
        <time>2020-01-02T10:21:40Z</time>
      </trkpt>
      <trkpt lat="45.00724" lon="0.7262">
        <ele>187.6</ele>
        <time>2020-01-02T10:21:41Z</time>
      </trkpt>
      <trkpt lat="45.00722" lon="0.726">
        <ele>188.6</ele>
        <time>2020-01-02T10:21:45Z</time>
      </trkpt>
      <trkpt lat="45.0072" lon="0.72586">
        <ele>188.6</ele>
        <time>2020-01-02T10:21:48Z</time>
      </trkpt>
      <trkpt lat="45.00714" lon="0.72564">
        <ele>187.8</ele>
        <time>2020-01-02T10:21:53Z</time>
      </trkpt>
      <trkpt lat="45.00713" lon="0.7256">
        <ele>187.6</ele>
        <time>2020-01-02T10:21:54Z</time>
      </trkpt>
      <trkpt lat="45.00713" lon="0.72556">
        <ele>187.2</ele>
        <time>2020-01-02T10:21:55Z</time>
      </trkpt>
      <trkpt lat="45.00711" lon="0.72547">
        <ele>186.2</ele>
        <time>2020-01-02T10:21:57Z</time>
      </trkpt>
      <trkpt lat="45.00708" lon="0.72534">
        <ele>185.2</ele>
        <time>2020-01-02T10:22:00Z</time>
      </trkpt>
      <trkpt lat="45.00708" lon="0.72531">
        <ele>185</ele>
        <time>2020-01-02T10:22:01Z</time>
      </trkpt>
      <trkpt lat="45.00703" lon="0.72504">
        <ele>185.6</ele>
        <time>2020-01-02T10:22:07Z</time>
      </trkpt>
      <trkpt lat="45.00699" lon="0.72479">
        <ele>184.2</ele>
        <time>2020-01-02T10:22:12Z</time>
      </trkpt>
      <trkpt lat="45.00699" lon="0.72474">
        <ele>184.2</ele>
        <time>2020-01-02T10:22:13Z</time>
      </trkpt>
      <trkpt lat="45.00698" lon="0.72452">
        <ele>183.8</ele>
        <time>2020-01-02T10:22:17Z</time>
      </trkpt>
      <trkpt lat="45.00698" lon="0.72442">
        <ele>183.2</ele>
        <time>2020-01-02T10:22:19Z</time>
      </trkpt>
      <trkpt lat="45.00698" lon="0.72437">
        <ele>183.2</ele>
        <time>2020-01-02T10:22:20Z</time>
      </trkpt>
      <trkpt lat="45.00698" lon="0.72416">
        <ele>182.6</ele>
        <time>2020-01-02T10:22:24Z</time>
      </trkpt>
      <trkpt lat="45.00698" lon="0.72402">
        <ele>181.8</ele>
        <time>2020-01-02T10:22:27Z</time>
      </trkpt>
      <trkpt lat="45.00697" lon="0.72397">
        <ele>181.6</ele>
        <time>2020-01-02T10:22:28Z</time>
      </trkpt>
      <trkpt lat="45.00692" lon="0.72382">
        <ele>180.2</ele>
        <time>2020-01-02T10:22:32Z</time>
      </trkpt>
      <trkpt lat="45.0069" lon="0.72378">
        <ele>180</ele>
        <time>2020-01-02T10:22:33Z</time>
      </trkpt>
      <trkpt lat="45.00684" lon="0.72362">
        <ele>179.2</ele>
        <time>2020-01-02T10:22:37Z</time>
      </trkpt>
      <trkpt lat="45.00682" lon="0.72349">
        <ele>178.6</ele>
        <time>2020-01-02T10:22:40Z</time>
      </trkpt>
      <trkpt lat="45.00682" lon="0.72341">
        <ele>178</ele>
        <time>2020-01-02T10:22:42Z</time>
      </trkpt>
      <trkpt lat="45.00684" lon="0.72328">
        <ele>176.8</ele>
        <time>2020-01-02T10:22:45Z</time>
      </trkpt>
      <trkpt lat="45.00686" lon="0.72305">
        <ele>175.6</ele>
        <time>2020-01-02T10:22:50Z</time>
      </trkpt>
      <trkpt lat="45.00686" lon="0.72299">
        <ele>175.2</ele>
        <time>2020-01-02T10:22:51Z</time>
      </trkpt>
      <trkpt lat="45.00688" lon="0.72288">
        <ele>174.4</ele>
        <time>2020-01-02T10:22:53Z</time>
      </trkpt>
      <trkpt lat="45.0069" lon="0.72273">
        <ele>173.4</ele>
        <time>2020-01-02T10:22:56Z</time>
      </trkpt>
      <trkpt lat="45.00691" lon="0.72267">
        <ele>173</ele>
        <time>2020-01-02T10:22:57Z</time>
      </trkpt>
      <trkpt lat="45.00694" lon="0.72257">
        <ele>172.4</ele>
        <time>2020-01-02T10:22:59Z</time>
      </trkpt>
      <trkpt lat="45.00696" lon="0.72247">
        <ele>171.8</ele>
        <time>2020-01-02T10:23:01Z</time>
      </trkpt>
      <trkpt lat="45.00697" lon="0.72244">
        <ele>171.2</ele>
        <time>2020-01-02T10:23:02Z</time>
      </trkpt>
      <trkpt lat="45.007" lon="0.72236">
        <ele>170.2</ele>
        <time>2020-01-02T10:23:04Z</time>
      </trkpt>
      <trkpt lat="45.00705" lon="0.72227">
        <ele>168.8</ele>
        <time>2020-01-02T10:23:06Z</time>
      </trkpt>
      <trkpt lat="45.00709" lon="0.72218">
        <ele>168.2</ele>
        <time>2020-01-02T10:23:08Z</time>
      </trkpt>
      <trkpt lat="45.00711" lon="0.72212">
        <ele>167.6</ele>
        <time>2020-01-02T10:23:09Z</time>
      </trkpt>
      <trkpt lat="45.00716" lon="0.72198">
        <ele>166.4</ele>
        <time>2020-01-02T10:23:12Z</time>
      </trkpt>
      <trkpt lat="45.00719" lon="0.72187">
        <ele>165.8</ele>
        <time>2020-01-02T10:23:14Z</time>
      </trkpt>
      <trkpt lat="45.00723" lon="0.72177">
        <ele>165</ele>
        <time>2020-01-02T10:23:16Z</time>
      </trkpt>
      <trkpt lat="45.00731" lon="0.72157">
        <ele>164.2</ele>
        <time>2020-01-02T10:23:20Z</time>
      </trkpt>
      <trkpt lat="45.00733" lon="0.72153">
        <ele>164</ele>
        <time>2020-01-02T10:23:21Z</time>
      </trkpt>
      <trkpt lat="45.00738" lon="0.72138">
        <ele>162.6</ele>
        <time>2020-01-02T10:23:25Z</time>
      </trkpt>
      <trkpt lat="45.00735" lon="0.72134">
        <ele>162.4</ele>
        <time>2020-01-02T10:23:27Z</time>
      </trkpt>
      <trkpt lat="45.00733" lon="0.72135">
        <ele>162.4</ele>
        <time>2020-01-02T10:23:28Z</time>
      </trkpt>
      <trkpt lat="45.00728" lon="0.7214">
        <ele>164</ele>
        <time>2020-01-02T10:23:30Z</time>
      </trkpt>
      <trkpt lat="45.00722" lon="0.72145">
        <ele>165.2</ele>
        <time>2020-01-02T10:23:32Z</time>
      </trkpt>
      <trkpt lat="45.00719" lon="0.72149">
        <ele>165.6</ele>
        <time>2020-01-02T10:23:33Z</time>
      </trkpt>
      <trkpt lat="45.00705" lon="0.7216">
        <ele>165.2</ele>
        <time>2020-01-02T10:23:38Z</time>
      </trkpt>
      <trkpt lat="45.00684" lon="0.72168">
        <ele>166.8</ele>
        <time>2020-01-02T10:23:45Z</time>
      </trkpt>
      <trkpt lat="45.00672" lon="0.72171">
        <ele>168.2</ele>
        <time>2020-01-02T10:23:50Z</time>
      </trkpt>
      <trkpt lat="45.00668" lon="0.72172">
        <ele>168.8</ele>
        <time>2020-01-02T10:23:51Z</time>
      </trkpt>
      <trkpt lat="45.00662" lon="0.72172">
        <ele>169.8</ele>
        <time>2020-01-02T10:23:53Z</time>
      </trkpt>
      <trkpt lat="45.00656" lon="0.72171">
        <ele>171.2</ele>
        <time>2020-01-02T10:23:55Z</time>
      </trkpt>
      <trkpt lat="45.00646" lon="0.72169">
        <ele>172.4</ele>
        <time>2020-01-02T10:23:58Z</time>
      </trkpt>
      <trkpt lat="45.00627" lon="0.72164">
        <ele>171.2</ele>
        <time>2020-01-02T10:24:04Z</time>
      </trkpt>
      <trkpt lat="45.00624" lon="0.72164">
        <ele>171.2</ele>
        <time>2020-01-02T10:24:05Z</time>
      </trkpt>
      <trkpt lat="45.00619" lon="0.72166">
        <ele>171.2</ele>
        <time>2020-01-02T10:24:07Z</time>
      </trkpt>
      <trkpt lat="45.00605" lon="0.7217">
        <ele>171.6</ele>
        <time>2020-01-02T10:24:12Z</time>
      </trkpt>
      <trkpt lat="45.00596" lon="0.72171">
        <ele>172.2</ele>
        <time>2020-01-02T10:24:15Z</time>
      </trkpt>
      <trkpt lat="45.00588" lon="0.72168">
        <ele>173</ele>
        <time>2020-01-02T10:24:18Z</time>
      </trkpt>
      <trkpt lat="45.00585" lon="0.72167">
        <ele>173.2</ele>
        <time>2020-01-02T10:24:19Z</time>
      </trkpt>
      <trkpt lat="45.00579" lon="0.72157">
        <ele>173.8</ele>
        <time>2020-01-02T10:24:22Z</time>
      </trkpt>
      <trkpt lat="45.00576" lon="0.72147">
        <ele>174.4</ele>
        <time>2020-01-02T10:24:24Z</time>
      </trkpt>
      <trkpt lat="45.0057" lon="0.72132">
        <ele>175.4</ele>
        <time>2020-01-02T10:24:28Z</time>
      </trkpt>
      <trkpt lat="45.00568" lon="0.72129">
        <ele>175.4</ele>
        <time>2020-01-02T10:24:29Z</time>
      </trkpt>
      <trkpt lat="45.00558" lon="0.72123">
        <ele>175.4</ele>
        <time>2020-01-02T10:24:33Z</time>
      </trkpt>
      <trkpt lat="45.00544" lon="0.72128">
        <ele>176</ele>
        <time>2020-01-02T10:24:38Z</time>
      </trkpt>
      <trkpt lat="45.00534" lon="0.7213">
        <ele>176.6</ele>
        <time>2020-01-02T10:24:42Z</time>
      </trkpt>
      <trkpt lat="45.00529" lon="0.72132">
        <ele>177</ele>
        <time>2020-01-02T10:24:44Z</time>
      </trkpt>
      <trkpt lat="45.00521" lon="0.72136">
        <ele>177.8</ele>
        <time>2020-01-02T10:24:47Z</time>
      </trkpt>
      <trkpt lat="45.00513" lon="0.72142">
        <ele>179</ele>
        <time>2020-01-02T10:24:50Z</time>
      </trkpt>
      <trkpt lat="45.00501" lon="0.72153">
        <ele>178.8</ele>
        <time>2020-01-02T10:24:56Z</time>
      </trkpt>
      <trkpt lat="45.00492" lon="0.72157">
        <ele>178.4</ele>
        <time>2020-01-02T10:25:00Z</time>
      </trkpt>
      <trkpt lat="45.00472" lon="0.7215">
        <ele>178.6</ele>
        <time>2020-01-02T10:25:06Z</time>
      </trkpt>
      <trkpt lat="45.00462" lon="0.72149">
        <ele>177.8</ele>
        <time>2020-01-02T10:25:09Z</time>
      </trkpt>
      <trkpt lat="45.00452" lon="0.72148">
        <ele>177</ele>
        <time>2020-01-02T10:25:12Z</time>
      </trkpt>
      <trkpt lat="45.00449" lon="0.72148">
        <ele>176.2</ele>
        <time>2020-01-02T10:25:13Z</time>
      </trkpt>
      <trkpt lat="45.00442" lon="0.72148">
        <ele>175</ele>
        <time>2020-01-02T10:25:15Z</time>
      </trkpt>
      <trkpt lat="45.00439" lon="0.72149">
        <ele>174.8</ele>
        <time>2020-01-02T10:25:16Z</time>
      </trkpt>
      <trkpt lat="45.00436" lon="0.7215">
        <ele>174.8</ele>
        <time>2020-01-02T10:25:17Z</time>
      </trkpt>
      <trkpt lat="45.00429" lon="0.72151">
        <ele>173.8</ele>
        <time>2020-01-02T10:25:19Z</time>
      </trkpt>
      <trkpt lat="45.00421" lon="0.72153">
        <ele>172.8</ele>
        <time>2020-01-02T10:25:22Z</time>
      </trkpt>
      <trkpt lat="45.00417" lon="0.72153">
        <ele>172.2</ele>
        <time>2020-01-02T10:25:23Z</time>
      </trkpt>
      <trkpt lat="45.00405" lon="0.72157">
        <ele>171.6</ele>
        <time>2020-01-02T10:25:27Z</time>
      </trkpt>
      <trkpt lat="45.004" lon="0.72159">
        <ele>171.2</ele>
        <time>2020-01-02T10:25:29Z</time>
      </trkpt>
      <trkpt lat="45.00394" lon="0.72161">
        <ele>170.4</ele>
        <time>2020-01-02T10:25:31Z</time>
      </trkpt>
      <trkpt lat="45.00385" lon="0.72163">
        <ele>170.2</ele>
        <time>2020-01-02T10:25:34Z</time>
      </trkpt>
      <trkpt lat="45.00368" lon="0.72169">
        <ele>168.8</ele>
        <time>2020-01-02T10:25:38Z</time>
      </trkpt>
      <trkpt lat="45.00368" lon="0.72169">
        <ele>168.8</ele>
        <time>2020-01-02T10:25:39Z</time>
      </trkpt>
      <trkpt lat="45.00352" lon="0.72176">
        <ele>168.2</ele>
        <time>2020-01-02T10:25:44Z</time>
      </trkpt>
      <trkpt lat="45.00341" lon="0.72185">
        <ele>167.6</ele>
        <time>2020-01-02T10:25:48Z</time>
      </trkpt>
      <trkpt lat="45.00335" lon="0.72189">
        <ele>166.8</ele>
        <time>2020-01-02T10:25:50Z</time>
      </trkpt>
      <trkpt lat="45.00325" lon="0.72196">
        <ele>166.6</ele>
        <time>2020-01-02T10:25:53Z</time>
      </trkpt>
      <trkpt lat="45.00317" lon="0.72202">
        <ele>165.4</ele>
        <time>2020-01-02T10:25:55Z</time>
      </trkpt>
      <trkpt lat="45.00313" lon="0.72204">
        <ele>164.8</ele>
        <time>2020-01-02T10:25:56Z</time>
      </trkpt>
      <trkpt lat="45.00307" lon="0.72208">
        <ele>164.4</ele>
        <time>2020-01-02T10:25:58Z</time>
      </trkpt>
      <trkpt lat="45.003" lon="0.72213">
        <ele>163.4</ele>
        <time>2020-01-02T10:26:00Z</time>
      </trkpt>
      <trkpt lat="45.00297" lon="0.72215">
        <ele>163.2</ele>
        <time>2020-01-02T10:26:01Z</time>
      </trkpt>
      <trkpt lat="45.00286" lon="0.72226">
        <ele>161.8</ele>
        <time>2020-01-02T10:26:05Z</time>
      </trkpt>
      <trkpt lat="45.00283" lon="0.72229">
        <ele>161.2</ele>
        <time>2020-01-02T10:26:06Z</time>
      </trkpt>
      <trkpt lat="45.00281" lon="0.72232">
        <ele>160.4</ele>
        <time>2020-01-02T10:26:07Z</time>
      </trkpt>
      <trkpt lat="45.0027" lon="0.72247">
        <ele>158.8</ele>
        <time>2020-01-02T10:26:11Z</time>
      </trkpt>
      <trkpt lat="45.00264" lon="0.72253">
        <ele>158.4</ele>
        <time>2020-01-02T10:26:13Z</time>
      </trkpt>
      <trkpt lat="45.00255" lon="0.72253">
        <ele>157.6</ele>
        <time>2020-01-02T10:26:15Z</time>
      </trkpt>
      <trkpt lat="45.00252" lon="0.7225">
        <ele>157.4</ele>
        <time>2020-01-02T10:26:16Z</time>
      </trkpt>
      <trkpt lat="45.00248" lon="0.72239">
        <ele>156.4</ele>
        <time>2020-01-02T10:26:18Z</time>
      </trkpt>
      <trkpt lat="45.00246" lon="0.72228">
        <ele>156</ele>
        <time>2020-01-02T10:26:20Z</time>
      </trkpt>
      <trkpt lat="45.00245" lon="0.72217">
        <ele>155.4</ele>
        <time>2020-01-02T10:26:22Z</time>
      </trkpt>
      <trkpt lat="45.00245" lon="0.72196">
        <ele>154.8</ele>
        <time>2020-01-02T10:26:26Z</time>
      </trkpt>
      <trkpt lat="45.00245" lon="0.7219">
        <ele>154.8</ele>
        <time>2020-01-02T10:26:27Z</time>
      </trkpt>
      <trkpt lat="45.00249" lon="0.72165">
        <ele>154.8</ele>
        <time>2020-01-02T10:26:32Z</time>
      </trkpt>
      <trkpt lat="45.00249" lon="0.7216">
        <ele>154.8</ele>
        <time>2020-01-02T10:26:33Z</time>
      </trkpt>
      <trkpt lat="45.00249" lon="0.72151">
        <ele>154.4</ele>
        <time>2020-01-02T10:26:35Z</time>
      </trkpt>
      <trkpt lat="45.0025" lon="0.72142">
        <ele>154.4</ele>
        <time>2020-01-02T10:26:37Z</time>
      </trkpt>
      <trkpt lat="45.00252" lon="0.72134">
        <ele>154.2</ele>
        <time>2020-01-02T10:26:39Z</time>
      </trkpt>
      <trkpt lat="45.00251" lon="0.72124">
        <ele>155</ele>
        <time>2020-01-02T10:26:42Z</time>
      </trkpt>
      <trkpt lat="45.00251" lon="0.72121">
        <ele>154.8</ele>
        <time>2020-01-02T10:26:44Z</time>
      </trkpt>
      <trkpt lat="45.00251" lon="0.72121">
        <ele>154.8</ele>
        <time>2020-01-02T10:26:45Z</time>
      </trkpt>
      <trkpt lat="45.00246" lon="0.72118">
        <ele>155.6</ele>
        <time>2020-01-02T10:26:48Z</time>
      </trkpt>
      <trkpt lat="45.00233" lon="0.72109">
        <ele>155.8</ele>
        <time>2020-01-02T10:26:53Z</time>
      </trkpt>
      <trkpt lat="45.00223" lon="0.72096">
        <ele>155.6</ele>
        <time>2020-01-02T10:26:58Z</time>
      </trkpt>
      <trkpt lat="45.00221" lon="0.72093">
        <ele>155.6</ele>
        <time>2020-01-02T10:26:59Z</time>
      </trkpt>
      <trkpt lat="45.00216" lon="0.72085">
        <ele>156.6</ele>
        <time>2020-01-02T10:27:02Z</time>
      </trkpt>
      <trkpt lat="45.00214" lon="0.72078">
        <ele>158</ele>
        <time>2020-01-02T10:27:04Z</time>
      </trkpt>
      <trkpt lat="45.00213" lon="0.72072">
        <ele>159.6</ele>
        <time>2020-01-02T10:27:06Z</time>
      </trkpt>
      <trkpt lat="45.00209" lon="0.72061">
        <ele>160.4</ele>
        <time>2020-01-02T10:27:10Z</time>
      </trkpt>
      <trkpt lat="45.00207" lon="0.72056">
        <ele>160.6</ele>
        <time>2020-01-02T10:27:12Z</time>
      </trkpt>
      <trkpt lat="45.00203" lon="0.72043">
        <ele>162</ele>
        <time>2020-01-02T10:27:16Z</time>
      </trkpt>
      <trkpt lat="45.00202" lon="0.7204">
        <ele>162.6</ele>
        <time>2020-01-02T10:27:17Z</time>
      </trkpt>
      <trkpt lat="45.002" lon="0.72037">
        <ele>163.2</ele>
        <time>2020-01-02T10:27:18Z</time>
      </trkpt>
      <trkpt lat="45.00197" lon="0.72032">
        <ele>164.8</ele>
        <time>2020-01-02T10:27:20Z</time>
      </trkpt>
      <trkpt lat="45.00195" lon="0.72026">
        <ele>165.8</ele>
        <time>2020-01-02T10:27:22Z</time>
      </trkpt>
      <trkpt lat="45.00194" lon="0.72023">
        <ele>166</ele>
        <time>2020-01-02T10:27:23Z</time>
      </trkpt>
      <trkpt lat="45.00184" lon="0.7201">
        <ele>166.2</ele>
        <time>2020-01-02T10:27:29Z</time>
      </trkpt>
      <trkpt lat="45.00177" lon="0.72002">
        <ele>167</ele>
        <time>2020-01-02T10:27:33Z</time>
      </trkpt>
      <trkpt lat="45.00171" lon="0.71994">
        <ele>168.2</ele>
        <time>2020-01-02T10:27:37Z</time>
      </trkpt>
      <trkpt lat="45.00167" lon="0.71989">
        <ele>169.2</ele>
        <time>2020-01-02T10:27:39Z</time>
      </trkpt>
      <trkpt lat="45.00163" lon="0.71985">
        <ele>170.4</ele>
        <time>2020-01-02T10:27:41Z</time>
      </trkpt>
      <trkpt lat="45.00159" lon="0.71981">
        <ele>171.2</ele>
        <time>2020-01-02T10:27:43Z</time>
      </trkpt>
      <trkpt lat="45.00157" lon="0.71978">
        <ele>171.4</ele>
        <time>2020-01-02T10:27:44Z</time>
      </trkpt>
      <trkpt lat="45.00148" lon="0.71963">
        <ele>171</ele>
        <time>2020-01-02T10:27:50Z</time>
      </trkpt>
      <trkpt lat="45.00139" lon="0.71954">
        <ele>171.2</ele>
        <time>2020-01-02T10:27:54Z</time>
      </trkpt>
      <trkpt lat="45.00133" lon="0.71948">
        <ele>172.2</ele>
        <time>2020-01-02T10:27:57Z</time>
      </trkpt>
      <trkpt lat="45.00131" lon="0.71946">
        <ele>172.6</ele>
        <time>2020-01-02T10:27:58Z</time>
      </trkpt>
      <trkpt lat="45.00126" lon="0.7194">
        <ele>173.8</ele>
        <time>2020-01-02T10:28:01Z</time>
      </trkpt>
      <trkpt lat="45.00122" lon="0.71935">
        <ele>174.8</ele>
        <time>2020-01-02T10:28:03Z</time>
      </trkpt>
      <trkpt lat="45.00121" lon="0.71932">
        <ele>175.6</ele>
        <time>2020-01-02T10:28:04Z</time>
      </trkpt>
      <trkpt lat="45.00119" lon="0.7193">
        <ele>176.4</ele>
        <time>2020-01-02T10:28:05Z</time>
      </trkpt>
      <trkpt lat="45.00115" lon="0.71921">
        <ele>177.8</ele>
        <time>2020-01-02T10:28:08Z</time>
      </trkpt>
      <trkpt lat="45.00112" lon="0.71916">
        <ele>178.4</ele>
        <time>2020-01-02T10:28:10Z</time>
      </trkpt>
      <trkpt lat="45.001" lon="0.71899">
        <ele>177.8</ele>
        <time>2020-01-02T10:28:17Z</time>
      </trkpt>
      <trkpt lat="45.00096" lon="0.71892">
        <ele>179</ele>
        <time>2020-01-02T10:28:20Z</time>
      </trkpt>
      <trkpt lat="45.00093" lon="0.71887">
        <ele>180</ele>
        <time>2020-01-02T10:28:22Z</time>
      </trkpt>
      <trkpt lat="45.00091" lon="0.71884">
        <ele>180</ele>
        <time>2020-01-02T10:28:23Z</time>
      </trkpt>
      <trkpt lat="45.0009" lon="0.71882">
        <ele>180.2</ele>
        <time>2020-01-02T10:28:24Z</time>
      </trkpt>
      <trkpt lat="45.00089" lon="0.71863">
        <ele>180.8</ele>
        <time>2020-01-02T10:28:29Z</time>
      </trkpt>
      <trkpt lat="45.0009" lon="0.71859">
        <ele>181.2</ele>
        <time>2020-01-02T10:28:30Z</time>
      </trkpt>
      <trkpt lat="45.00093" lon="0.71853">
        <ele>181.4</ele>
        <time>2020-01-02T10:28:31Z</time>
      </trkpt>
      <trkpt lat="45.00097" lon="0.71846">
        <ele>181.4</ele>
        <time>2020-01-02T10:28:34Z</time>
      </trkpt>
      <trkpt lat="45.00112" lon="0.71826">
        <ele>181</ele>
        <time>2020-01-02T10:28:40Z</time>
      </trkpt>
      <trkpt lat="45.00124" lon="0.71805">
        <ele>180.6</ele>
        <time>2020-01-02T10:28:46Z</time>
      </trkpt>
      <trkpt lat="45.00126" lon="0.71802">
        <ele>180.6</ele>
        <time>2020-01-02T10:28:47Z</time>
      </trkpt>
      <trkpt lat="45.00132" lon="0.71791">
        <ele>181</ele>
        <time>2020-01-02T10:28:50Z</time>
      </trkpt>
      <trkpt lat="45.00136" lon="0.71785">
        <ele>180.8</ele>
        <time>2020-01-02T10:28:52Z</time>
      </trkpt>
      <trkpt lat="45.0014" lon="0.71778">
        <ele>180.2</ele>
        <time>2020-01-02T10:28:54Z</time>
      </trkpt>
      <trkpt lat="45.0015" lon="0.71767">
        <ele>179.6</ele>
        <time>2020-01-02T10:28:58Z</time>
      </trkpt>
      <trkpt lat="45.00163" lon="0.71755">
        <ele>179.8</ele>
        <time>2020-01-02T10:29:03Z</time>
      </trkpt>
      <trkpt lat="45.00169" lon="0.7175">
        <ele>179</ele>
        <time>2020-01-02T10:29:05Z</time>
      </trkpt>
      <trkpt lat="45.00175" lon="0.71748">
        <ele>178.6</ele>
        <time>2020-01-02T10:29:07Z</time>
      </trkpt>
      <trkpt lat="45.00178" lon="0.71746">
        <ele>178.4</ele>
        <time>2020-01-02T10:29:08Z</time>
      </trkpt>
      <trkpt lat="45.00191" lon="0.71739">
        <ele>178.4</ele>
        <time>2020-01-02T10:29:12Z</time>
      </trkpt>
      <trkpt lat="45.002" lon="0.71734">
        <ele>178.8</ele>
        <time>2020-01-02T10:29:15Z</time>
      </trkpt>
      <trkpt lat="45.00218" lon="0.71727">
        <ele>179</ele>
        <time>2020-01-02T10:29:21Z</time>
      </trkpt>
      <trkpt lat="45.00225" lon="0.71726">
        <ele>177.8</ele>
        <time>2020-01-02T10:29:23Z</time>
      </trkpt>
      <trkpt lat="45.00242" lon="0.7172">
        <ele>177.4</ele>
        <time>2020-01-02T10:29:28Z</time>
      </trkpt>
      <trkpt lat="45.00252" lon="0.71707">
        <ele>178.4</ele>
        <time>2020-01-02T10:29:34Z</time>
      </trkpt>
      <trkpt lat="45.00256" lon="0.71701">
        <ele>179</ele>
        <time>2020-01-02T10:29:36Z</time>
      </trkpt>
      <trkpt lat="45.00265" lon="0.71691">
        <ele>180.2</ele>
        <time>2020-01-02T10:29:40Z</time>
      </trkpt>
      <trkpt lat="45.00268" lon="0.71689">
        <ele>180.4</ele>
        <time>2020-01-02T10:29:41Z</time>
      </trkpt>
      <trkpt lat="45.00284" lon="0.71673">
        <ele>181</ele>
        <time>2020-01-02T10:29:48Z</time>
      </trkpt>
      <trkpt lat="45.00286" lon="0.71671">
        <ele>181</ele>
        <time>2020-01-02T10:29:49Z</time>
      </trkpt>
      <trkpt lat="45.00297" lon="0.71658">
        <ele>180.4</ele>
        <time>2020-01-02T10:29:55Z</time>
      </trkpt>
      <trkpt lat="45.00296" lon="0.71656">
        <ele>180.4</ele>
        <time>2020-01-02T10:29:56Z</time>
      </trkpt>
      <trkpt lat="45.00287" lon="0.71655">
        <ele>181.2</ele>
        <time>2020-01-02T10:30:00Z</time>
      </trkpt>
      <trkpt lat="45.00275" lon="0.71659">
        <ele>182.4</ele>
        <time>2020-01-02T10:30:04Z</time>
      </trkpt>
      <trkpt lat="45.00271" lon="0.71659">
        <ele>182.6</ele>
        <time>2020-01-02T10:30:05Z</time>
      </trkpt>
      <trkpt lat="45.00257" lon="0.7166">
        <ele>182.6</ele>
        <time>2020-01-02T10:30:10Z</time>
      </trkpt>
      <trkpt lat="45.00243" lon="0.71667">
        <ele>181</ele>
        <time>2020-01-02T10:30:15Z</time>
      </trkpt>
      <trkpt lat="45.00236" lon="0.71668">
        <ele>180.8</ele>
        <time>2020-01-02T10:30:17Z</time>
      </trkpt>
      <trkpt lat="45.0022" lon="0.71672">
        <ele>182.2</ele>
        <time>2020-01-02T10:30:23Z</time>
      </trkpt>
      <trkpt lat="45.00206" lon="0.71679">
        <ele>183</ele>
        <time>2020-01-02T10:30:28Z</time>
      </trkpt>
      <trkpt lat="45.00199" lon="0.7168">
        <ele>181.8</ele>
        <time>2020-01-02T10:30:31Z</time>
      </trkpt>
      <trkpt lat="45.00192" lon="0.71682">
        <ele>181.4</ele>
        <time>2020-01-02T10:30:34Z</time>
      </trkpt>
      <trkpt lat="45.00176" lon="0.7169">
        <ele>181.6</ele>
        <time>2020-01-02T10:30:40Z</time>
      </trkpt>
      <trkpt lat="45.00164" lon="0.71695">
        <ele>183</ele>
        <time>2020-01-02T10:30:45Z</time>
      </trkpt>
      <trkpt lat="45.00159" lon="0.71697">
        <ele>183.4</ele>
        <time>2020-01-02T10:30:47Z</time>
      </trkpt>
      <trkpt lat="45.00148" lon="0.71703">
        <ele>184.6</ele>
        <time>2020-01-02T10:30:51Z</time>
      </trkpt>
      <trkpt lat="45.00141" lon="0.71704">
        <ele>185.6</ele>
        <time>2020-01-02T10:30:54Z</time>
      </trkpt>
      <trkpt lat="45.00136" lon="0.71705">
        <ele>185.8</ele>
        <time>2020-01-02T10:30:56Z</time>
      </trkpt>
      <trkpt lat="45.00129" lon="0.71709">
        <ele>186</ele>
        <time>2020-01-02T10:30:58Z</time>
      </trkpt>
      <trkpt lat="45.00115" lon="0.71716">
        <ele>184.8</ele>
        <time>2020-01-02T10:31:03Z</time>
      </trkpt>
      <trkpt lat="45.0011" lon="0.71719">
        <ele>184.6</ele>
        <time>2020-01-02T10:31:05Z</time>
      </trkpt>
      <trkpt lat="45.00103" lon="0.71724">
        <ele>185</ele>
        <time>2020-01-02T10:31:08Z</time>
      </trkpt>
      <trkpt lat="45.00086" lon="0.71731">
        <ele>184.6</ele>
        <time>2020-01-02T10:31:14Z</time>
      </trkpt>
      <trkpt lat="45.00074" lon="0.71738">
        <ele>184.6</ele>
        <time>2020-01-02T10:31:19Z</time>
      </trkpt>
      <trkpt lat="45.00054" lon="0.7175">
        <ele>184.6</ele>
        <time>2020-01-02T10:31:24Z</time>
      </trkpt>
      <trkpt lat="45.00054" lon="0.7175">
        <ele>184.6</ele>
        <time>2020-01-02T10:31:25Z</time>
      </trkpt>
      <trkpt lat="45.00039" lon="0.7176">
        <ele>184.2</ele>
        <time>2020-01-02T10:31:30Z</time>
      </trkpt>
      <trkpt lat="45.00026" lon="0.71774">
        <ele>183.8</ele>
        <time>2020-01-02T10:31:35Z</time>
      </trkpt>
      <trkpt lat="45.00023" lon="0.71776">
        <ele>183.4</ele>
        <time>2020-01-02T10:31:36Z</time>
      </trkpt>
      <trkpt lat="45.00018" lon="0.71779">
        <ele>182.8</ele>
        <time>2020-01-02T10:31:38Z</time>
      </trkpt>
      <trkpt lat="45.00012" lon="0.71785">
        <ele>182.6</ele>
        <time>2020-01-02T10:31:40Z</time>
      </trkpt>
      <trkpt lat="44.99994" lon="0.718">
        <ele>183.8</ele>
        <time>2020-01-02T10:31:46Z</time>
      </trkpt>
      <trkpt lat="44.99986" lon="0.71803">
        <ele>183.8</ele>
        <time>2020-01-02T10:31:49Z</time>
      </trkpt>
      <trkpt lat="44.99979" lon="0.71803">
        <ele>183.4</ele>
        <time>2020-01-02T10:31:51Z</time>
      </trkpt>
      <trkpt lat="44.99961" lon="0.71801">
        <ele>183</ele>
        <time>2020-01-02T10:31:56Z</time>
      </trkpt>
      <trkpt lat="44.99945" lon="0.71802">
        <ele>183.4</ele>
        <time>2020-01-02T10:32:01Z</time>
      </trkpt>
      <trkpt lat="44.99935" lon="0.71802">
        <ele>184.6</ele>
        <time>2020-01-02T10:32:05Z</time>
      </trkpt>
      <trkpt lat="44.99932" lon="0.71802">
        <ele>185.2</ele>
        <time>2020-01-02T10:32:06Z</time>
      </trkpt>
      <trkpt lat="44.99929" lon="0.71802">
        <ele>185.8</ele>
        <time>2020-01-02T10:32:07Z</time>
      </trkpt>
      <trkpt lat="44.99914" lon="0.71802">
        <ele>185.6</ele>
        <time>2020-01-02T10:32:12Z</time>
      </trkpt>
      <trkpt lat="44.99911" lon="0.71802">
        <ele>185.4</ele>
        <time>2020-01-02T10:32:13Z</time>
      </trkpt>
      <trkpt lat="44.99898" lon="0.718">
        <ele>185.4</ele>
        <time>2020-01-02T10:32:17Z</time>
      </trkpt>
      <trkpt lat="44.99884" lon="0.718">
        <ele>185.8</ele>
        <time>2020-01-02T10:32:22Z</time>
      </trkpt>
      <trkpt lat="44.99881" lon="0.718">
        <ele>186</ele>
        <time>2020-01-02T10:32:23Z</time>
      </trkpt>
      <trkpt lat="44.99861" lon="0.71801">
        <ele>186.2</ele>
        <time>2020-01-02T10:32:29Z</time>
      </trkpt>
      <trkpt lat="44.99858" lon="0.71802">
        <ele>186</ele>
        <time>2020-01-02T10:32:30Z</time>
      </trkpt>
      <trkpt lat="44.99838" lon="0.71803">
        <ele>185.8</ele>
        <time>2020-01-02T10:32:36Z</time>
      </trkpt>
      <trkpt lat="44.99829" lon="0.718">
        <ele>187</ele>
        <time>2020-01-02T10:32:39Z</time>
      </trkpt>
      <trkpt lat="44.99823" lon="0.718">
        <ele>187.2</ele>
        <time>2020-01-02T10:32:41Z</time>
      </trkpt>
      <trkpt lat="44.99815" lon="0.71801">
        <ele>185.6</ele>
        <time>2020-01-02T10:32:44Z</time>
      </trkpt>
      <trkpt lat="44.99809" lon="0.718">
        <ele>185</ele>
        <time>2020-01-02T10:32:46Z</time>
      </trkpt>
      <trkpt lat="44.99806" lon="0.718">
        <ele>185</ele>
        <time>2020-01-02T10:32:47Z</time>
      </trkpt>
      <trkpt lat="44.99793" lon="0.71796">
        <ele>185.4</ele>
        <time>2020-01-02T10:32:51Z</time>
      </trkpt>
      <trkpt lat="44.99776" lon="0.7179">
        <ele>185.2</ele>
        <time>2020-01-02T10:32:57Z</time>
      </trkpt>
      <trkpt lat="44.99767" lon="0.7178">
        <ele>185.6</ele>
        <time>2020-01-02T10:33:01Z</time>
      </trkpt>
      <trkpt lat="44.99752" lon="0.71767">
        <ele>185.8</ele>
        <time>2020-01-02T10:33:07Z</time>
      </trkpt>
      <trkpt lat="44.99734" lon="0.71755">
        <ele>185.6</ele>
        <time>2020-01-02T10:33:13Z</time>
      </trkpt>
      <trkpt lat="44.99727" lon="0.71748">
        <ele>186.8</ele>
        <time>2020-01-02T10:33:16Z</time>
      </trkpt>
      <trkpt lat="44.99721" lon="0.71744">
        <ele>188</ele>
        <time>2020-01-02T10:33:18Z</time>
      </trkpt>
      <trkpt lat="44.99715" lon="0.71743">
        <ele>189</ele>
        <time>2020-01-02T10:33:19Z</time>
      </trkpt>
      <trkpt lat="44.99696" lon="0.71737">
        <ele>189.6</ele>
        <time>2020-01-02T10:33:26Z</time>
      </trkpt>
      <trkpt lat="44.99691" lon="0.71735">
        <ele>188.6</ele>
        <time>2020-01-02T10:33:28Z</time>
      </trkpt>
      <trkpt lat="44.99674" lon="0.7173">
        <ele>188.2</ele>
        <time>2020-01-02T10:33:34Z</time>
      </trkpt>
      <trkpt lat="44.99655" lon="0.71724">
        <ele>189.6</ele>
        <time>2020-01-02T10:33:41Z</time>
      </trkpt>
      <trkpt lat="44.99647" lon="0.71718">
        <ele>189</ele>
        <time>2020-01-02T10:33:44Z</time>
      </trkpt>
      <trkpt lat="44.99638" lon="0.71714">
        <ele>187.6</ele>
        <time>2020-01-02T10:33:47Z</time>
      </trkpt>
      <trkpt lat="44.99635" lon="0.71713">
        <ele>187.4</ele>
        <time>2020-01-02T10:33:48Z</time>
      </trkpt>
      <trkpt lat="44.9962" lon="0.71708">
        <ele>186.8</ele>
        <time>2020-01-02T10:33:53Z</time>
      </trkpt>
      <trkpt lat="44.99614" lon="0.71708">
        <ele>186.2</ele>
        <time>2020-01-02T10:33:55Z</time>
      </trkpt>
      <trkpt lat="44.9961" lon="0.71707">
        <ele>185.8</ele>
        <time>2020-01-02T10:33:56Z</time>
      </trkpt>
      <trkpt lat="44.99603" lon="0.71707">
        <ele>185.6</ele>
        <time>2020-01-02T10:33:58Z</time>
      </trkpt>
      <trkpt lat="44.99601" lon="0.71708">
        <ele>185.6</ele>
        <time>2020-01-02T10:33:59Z</time>
      </trkpt>
      <trkpt lat="44.99587" lon="0.71709">
        <ele>185.6</ele>
        <time>2020-01-02T10:34:03Z</time>
      </trkpt>
      <trkpt lat="44.99584" lon="0.71709">
        <ele>185.2</ele>
        <time>2020-01-02T10:34:04Z</time>
      </trkpt>
      <trkpt lat="44.99575" lon="0.71709">
        <ele>184.6</ele>
        <time>2020-01-02T10:34:07Z</time>
      </trkpt>
      <trkpt lat="44.99555" lon="0.71712">
        <ele>186.2</ele>
        <time>2020-01-02T10:34:13Z</time>
      </trkpt>
      <trkpt lat="44.99542" lon="0.71717">
        <ele>184</ele>
        <time>2020-01-02T10:34:17Z</time>
      </trkpt>
      <trkpt lat="44.99536" lon="0.71719">
        <ele>184</ele>
        <time>2020-01-02T10:34:19Z</time>
      </trkpt>
      <trkpt lat="44.99526" lon="0.71721">
        <ele>184.6</ele>
        <time>2020-01-02T10:34:23Z</time>
      </trkpt>
      <trkpt lat="44.99521" lon="0.71723">
        <ele>185.2</ele>
        <time>2020-01-02T10:34:25Z</time>
      </trkpt>
      <trkpt lat="44.99507" lon="0.71729">
        <ele>185.2</ele>
        <time>2020-01-02T10:34:30Z</time>
      </trkpt>
      <trkpt lat="44.99492" lon="0.71737">
        <ele>185.4</ele>
        <time>2020-01-02T10:34:35Z</time>
      </trkpt>
      <trkpt lat="44.9948" lon="0.71744">
        <ele>185.4</ele>
        <time>2020-01-02T10:34:40Z</time>
      </trkpt>
      <trkpt lat="44.99466" lon="0.71754">
        <ele>186.2</ele>
        <time>2020-01-02T10:34:45Z</time>
      </trkpt>
      <trkpt lat="44.99461" lon="0.71756">
        <ele>186.4</ele>
        <time>2020-01-02T10:34:46Z</time>
      </trkpt>
      <trkpt lat="44.99446" lon="0.71768">
        <ele>185.8</ele>
        <time>2020-01-02T10:34:52Z</time>
      </trkpt>
      <trkpt lat="44.99434" lon="0.71776">
        <ele>187.6</ele>
        <time>2020-01-02T10:34:56Z</time>
      </trkpt>
      <trkpt lat="44.99428" lon="0.71779">
        <ele>188.4</ele>
        <time>2020-01-02T10:34:58Z</time>
      </trkpt>
      <trkpt lat="44.99411" lon="0.7178">
        <ele>187.4</ele>
        <time>2020-01-02T10:35:03Z</time>
      </trkpt>
      <trkpt lat="44.99395" lon="0.71785">
        <ele>188</ele>
        <time>2020-01-02T10:35:08Z</time>
      </trkpt>
      <trkpt lat="44.99388" lon="0.71788">
        <ele>188.6</ele>
        <time>2020-01-02T10:35:10Z</time>
      </trkpt>
      <trkpt lat="44.99373" lon="0.71794">
        <ele>188</ele>
        <time>2020-01-02T10:35:14Z</time>
      </trkpt>
      <trkpt lat="44.99358" lon="0.71797">
        <ele>188.6</ele>
        <time>2020-01-02T10:35:20Z</time>
      </trkpt>
      <trkpt lat="44.99341" lon="0.71799">
        <ele>188.8</ele>
        <time>2020-01-02T10:35:26Z</time>
      </trkpt>
      <trkpt lat="44.99329" lon="0.71802">
        <ele>190</ele>
        <time>2020-01-02T10:35:30Z</time>
      </trkpt>
      <trkpt lat="44.99323" lon="0.71805">
        <ele>191.6</ele>
        <time>2020-01-02T10:35:32Z</time>
      </trkpt>
      <trkpt lat="44.99314" lon="0.7181">
        <ele>192.6</ele>
        <time>2020-01-02T10:35:35Z</time>
      </trkpt>
      <trkpt lat="44.99304" lon="0.71813">
        <ele>191.6</ele>
        <time>2020-01-02T10:35:38Z</time>
      </trkpt>
      <trkpt lat="44.99301" lon="0.71813">
        <ele>191.4</ele>
        <time>2020-01-02T10:35:39Z</time>
      </trkpt>
      <trkpt lat="44.99294" lon="0.71802">
        <ele>191.4</ele>
        <time>2020-01-02T10:35:43Z</time>
      </trkpt>
      <trkpt lat="44.99291" lon="0.7179">
        <ele>193</ele>
        <time>2020-01-02T10:35:46Z</time>
      </trkpt>
      <trkpt lat="44.99289" lon="0.71782">
        <ele>194.2</ele>
        <time>2020-01-02T10:35:48Z</time>
      </trkpt>
      <trkpt lat="44.99286" lon="0.7177">
        <ele>195.2</ele>
        <time>2020-01-02T10:35:51Z</time>
      </trkpt>
      <trkpt lat="44.9928" lon="0.71745">
        <ele>194.8</ele>
        <time>2020-01-02T10:35:58Z</time>
      </trkpt>
      <trkpt lat="44.99279" lon="0.71741">
        <ele>195</ele>
        <time>2020-01-02T10:35:59Z</time>
      </trkpt>
      <trkpt lat="44.99274" lon="0.71724">
        <ele>196.4</ele>
        <time>2020-01-02T10:36:04Z</time>
      </trkpt>
      <trkpt lat="44.99272" lon="0.71718">
        <ele>197.6</ele>
        <time>2020-01-02T10:36:06Z</time>
      </trkpt>
      <trkpt lat="44.99266" lon="0.71706">
        <ele>198.6</ele>
        <time>2020-01-02T10:36:10Z</time>
      </trkpt>
      <trkpt lat="44.99263" lon="0.71701">
        <ele>197.8</ele>
        <time>2020-01-02T10:36:12Z</time>
      </trkpt>
      <trkpt lat="44.99261" lon="0.71699">
        <ele>197.4</ele>
        <time>2020-01-02T10:36:13Z</time>
      </trkpt>
      <trkpt lat="44.9925" lon="0.71687">
        <ele>197</ele>
        <time>2020-01-02T10:36:18Z</time>
      </trkpt>
      <trkpt lat="44.99241" lon="0.71673">
        <ele>198</ele>
        <time>2020-01-02T10:36:23Z</time>
      </trkpt>
      <trkpt lat="44.99228" lon="0.71658">
        <ele>196.6</ele>
        <time>2020-01-02T10:36:29Z</time>
      </trkpt>
      <trkpt lat="44.99218" lon="0.71648">
        <ele>197.8</ele>
        <time>2020-01-02T10:36:34Z</time>
      </trkpt>
      <trkpt lat="44.99211" lon="0.71649">
        <ele>197.6</ele>
        <time>2020-01-02T10:36:37Z</time>
      </trkpt>
      <trkpt lat="44.99206" lon="0.71651">
        <ele>197.2</ele>
        <time>2020-01-02T10:36:39Z</time>
      </trkpt>
      <trkpt lat="44.99196" lon="0.71657">
        <ele>197.6</ele>
        <time>2020-01-02T10:36:43Z</time>
      </trkpt>
      <trkpt lat="44.99194" lon="0.71659">
        <ele>197.8</ele>
        <time>2020-01-02T10:36:44Z</time>
      </trkpt>
      <trkpt lat="44.99189" lon="0.71661">
        <ele>199</ele>
        <time>2020-01-02T10:36:46Z</time>
      </trkpt>
      <trkpt lat="44.99183" lon="0.71662">
        <ele>200.2</ele>
        <time>2020-01-02T10:36:48Z</time>
      </trkpt>
      <trkpt lat="44.9918" lon="0.71663">
        <ele>200.6</ele>
        <time>2020-01-02T10:36:49Z</time>
      </trkpt>
      <trkpt lat="44.99176" lon="0.71658">
        <ele>201.2</ele>
        <time>2020-01-02T10:36:51Z</time>
      </trkpt>
      <trkpt lat="44.99174" lon="0.71655">
        <ele>201.4</ele>
        <time>2020-01-02T10:36:52Z</time>
      </trkpt>
      <trkpt lat="44.99167" lon="0.71655">
        <ele>202.2</ele>
        <time>2020-01-02T10:36:55Z</time>
      </trkpt>
      <trkpt lat="44.99164" lon="0.71655">
        <ele>202.6</ele>
        <time>2020-01-02T10:36:56Z</time>
      </trkpt>
      <trkpt lat="44.99155" lon="0.71656">
        <ele>204</ele>
        <time>2020-01-02T10:36:59Z</time>
      </trkpt>
      <trkpt lat="44.9915" lon="0.71655">
        <ele>205</ele>
        <time>2020-01-02T10:37:01Z</time>
      </trkpt>
      <trkpt lat="44.99147" lon="0.71656">
        <ele>205.2</ele>
        <time>2020-01-02T10:37:02Z</time>
      </trkpt>
      <trkpt lat="44.99134" lon="0.71657">
        <ele>205.6</ele>
        <time>2020-01-02T10:37:07Z</time>
      </trkpt>
      <trkpt lat="44.99117" lon="0.71669">
        <ele>205.4</ele>
        <time>2020-01-02T10:37:13Z</time>
      </trkpt>
      <trkpt lat="44.99111" lon="0.71673">
        <ele>205.2</ele>
        <time>2020-01-02T10:37:15Z</time>
      </trkpt>
      <trkpt lat="44.99096" lon="0.71688">
        <ele>205.2</ele>
        <time>2020-01-02T10:37:20Z</time>
      </trkpt>
      <trkpt lat="44.99094" lon="0.7169">
        <ele>205.6</ele>
        <time>2020-01-02T10:37:21Z</time>
      </trkpt>
      <trkpt lat="44.99082" lon="0.71688">
        <ele>206.6</ele>
        <time>2020-01-02T10:37:25Z</time>
      </trkpt>
      <trkpt lat="44.99075" lon="0.71675">
        <ele>208</ele>
        <time>2020-01-02T10:37:29Z</time>
      </trkpt>
      <trkpt lat="44.99071" lon="0.71667">
        <ele>209</ele>
        <time>2020-01-02T10:37:31Z</time>
      </trkpt>
      <trkpt lat="44.99066" lon="0.71656">
        <ele>210</ele>
        <time>2020-01-02T10:37:34Z</time>
      </trkpt>
      <trkpt lat="44.99056" lon="0.71634">
        <ele>209.2</ele>
        <time>2020-01-02T10:37:40Z</time>
      </trkpt>
      <trkpt lat="44.99045" lon="0.7161">
        <ele>210.2</ele>
        <time>2020-01-02T10:37:47Z</time>
      </trkpt>
      <trkpt lat="44.99037" lon="0.71593">
        <ele>211.2</ele>
        <time>2020-01-02T10:37:52Z</time>
      </trkpt>
      <trkpt lat="44.99035" lon="0.7159">
        <ele>211.2</ele>
        <time>2020-01-02T10:37:53Z</time>
      </trkpt>
      <trkpt lat="44.9903" lon="0.7158">
        <ele>212.2</ele>
        <time>2020-01-02T10:37:56Z</time>
      </trkpt>
      <trkpt lat="44.99024" lon="0.71571">
        <ele>213.2</ele>
        <time>2020-01-02T10:37:59Z</time>
      </trkpt>
      <trkpt lat="44.99022" lon="0.71568">
        <ele>213.2</ele>
        <time>2020-01-02T10:38:00Z</time>
      </trkpt>
      <trkpt lat="44.99006" lon="0.71556">
        <ele>212.2</ele>
        <time>2020-01-02T10:38:06Z</time>
      </trkpt>
      <trkpt lat="44.99003" lon="0.71554">
        <ele>212</ele>
        <time>2020-01-02T10:38:07Z</time>
      </trkpt>
      <trkpt lat="44.9899" lon="0.71545">
        <ele>210.8</ele>
        <time>2020-01-02T10:38:12Z</time>
      </trkpt>
      <trkpt lat="44.98988" lon="0.71542">
        <ele>210.6</ele>
        <time>2020-01-02T10:38:13Z</time>
      </trkpt>
      <trkpt lat="44.98973" lon="0.71535">
        <ele>211.2</ele>
        <time>2020-01-02T10:38:18Z</time>
      </trkpt>
      <trkpt lat="44.98956" lon="0.71523">
        <ele>210</ele>
        <time>2020-01-02T10:38:23Z</time>
      </trkpt>
      <trkpt lat="44.98953" lon="0.7152">
        <ele>210</ele>
        <time>2020-01-02T10:38:24Z</time>
      </trkpt>
      <trkpt lat="44.98944" lon="0.71513">
        <ele>209.8</ele>
        <time>2020-01-02T10:38:27Z</time>
      </trkpt>
      <trkpt lat="44.98939" lon="0.71506">
        <ele>209</ele>
        <time>2020-01-02T10:38:29Z</time>
      </trkpt>
      <trkpt lat="44.98937" lon="0.71503">
        <ele>208.8</ele>
        <time>2020-01-02T10:38:30Z</time>
      </trkpt>
      <trkpt lat="44.98932" lon="0.71498">
        <ele>208.6</ele>
        <time>2020-01-02T10:38:32Z</time>
      </trkpt>
      <trkpt lat="44.98921" lon="0.71489">
        <ele>207.8</ele>
        <time>2020-01-02T10:38:36Z</time>
      </trkpt>
      <trkpt lat="44.98914" lon="0.71486">
        <ele>207.6</ele>
        <time>2020-01-02T10:38:38Z</time>
      </trkpt>
      <trkpt lat="44.98905" lon="0.71481">
        <ele>208</ele>
        <time>2020-01-02T10:38:41Z</time>
      </trkpt>
      <trkpt lat="44.98888" lon="0.71473">
        <ele>207.2</ele>
        <time>2020-01-02T10:38:47Z</time>
      </trkpt>
      <trkpt lat="44.98875" lon="0.71465">
        <ele>207.8</ele>
        <time>2020-01-02T10:38:52Z</time>
      </trkpt>
      <trkpt lat="44.98866" lon="0.7146">
        <ele>206.6</ele>
        <time>2020-01-02T10:38:55Z</time>
      </trkpt>
      <trkpt lat="44.9886" lon="0.71458">
        <ele>206.4</ele>
        <time>2020-01-02T10:38:57Z</time>
      </trkpt>
      <trkpt lat="44.98856" lon="0.71457">
        <ele>206.2</ele>
        <time>2020-01-02T10:38:58Z</time>
      </trkpt>
      <trkpt lat="44.98839" lon="0.71453">
        <ele>207.2</ele>
        <time>2020-01-02T10:39:03Z</time>
      </trkpt>
      <trkpt lat="44.98821" lon="0.71445">
        <ele>206.6</ele>
        <time>2020-01-02T10:39:09Z</time>
      </trkpt>
      <trkpt lat="44.98806" lon="0.71437">
        <ele>206.2</ele>
        <time>2020-01-02T10:39:14Z</time>
      </trkpt>
      <trkpt lat="44.98793" lon="0.71433">
        <ele>206</ele>
        <time>2020-01-02T10:39:18Z</time>
      </trkpt>
      <trkpt lat="44.98785" lon="0.71433">
        <ele>206</ele>
        <time>2020-01-02T10:39:20Z</time>
      </trkpt>
      <trkpt lat="44.98774" lon="0.7143">
        <ele>205.6</ele>
        <time>2020-01-02T10:39:23Z</time>
      </trkpt>
      <trkpt lat="44.98766" lon="0.71426">
        <ele>205.6</ele>
        <time>2020-01-02T10:39:25Z</time>
      </trkpt>
      <trkpt lat="44.98747" lon="0.71421">
        <ele>204.6</ele>
        <time>2020-01-02T10:39:31Z</time>
      </trkpt>
      <trkpt lat="44.98743" lon="0.7142">
        <ele>204.6</ele>
        <time>2020-01-02T10:39:32Z</time>
      </trkpt>
      <trkpt lat="44.98727" lon="0.71415">
        <ele>204.4</ele>
        <time>2020-01-02T10:39:37Z</time>
      </trkpt>
      <trkpt lat="44.9871" lon="0.71411">
        <ele>204</ele>
        <time>2020-01-02T10:39:42Z</time>
      </trkpt>
      <trkpt lat="44.98689" lon="0.7141">
        <ele>203.2</ele>
        <time>2020-01-02T10:39:48Z</time>
      </trkpt>
      <trkpt lat="44.98676" lon="0.71407">
        <ele>202.8</ele>
        <time>2020-01-02T10:39:52Z</time>
      </trkpt>
      <trkpt lat="44.98668" lon="0.71407">
        <ele>202.8</ele>
        <time>2020-01-02T10:39:55Z</time>
      </trkpt>
      <trkpt lat="44.98666" lon="0.7141">
        <ele>202.8</ele>
        <time>2020-01-02T10:39:56Z</time>
      </trkpt>
      <trkpt lat="44.98658" lon="0.71431">
        <ele>202.4</ele>
        <time>2020-01-02T10:40:01Z</time>
      </trkpt>
      <trkpt lat="44.98655" lon="0.71439">
        <ele>202.2</ele>
        <time>2020-01-02T10:40:03Z</time>
      </trkpt>
      <trkpt lat="44.98647" lon="0.71454">
        <ele>201</ele>
        <time>2020-01-02T10:40:07Z</time>
      </trkpt>
      <trkpt lat="44.98637" lon="0.71462">
        <ele>199.8</ele>
        <time>2020-01-02T10:40:10Z</time>
      </trkpt>
      <trkpt lat="44.9863" lon="0.71466">
        <ele>199</ele>
        <time>2020-01-02T10:40:12Z</time>
      </trkpt>
      <trkpt lat="44.98628" lon="0.71468">
        <ele>198.6</ele>
        <time>2020-01-02T10:40:13Z</time>
      </trkpt>
      <trkpt lat="44.98619" lon="0.71472">
        <ele>198.2</ele>
        <time>2020-01-02T10:40:16Z</time>
      </trkpt>
      <trkpt lat="44.98613" lon="0.71474">
        <ele>197.6</ele>
        <time>2020-01-02T10:40:18Z</time>
      </trkpt>
      <trkpt lat="44.98601" lon="0.71475">
        <ele>196.8</ele>
        <time>2020-01-02T10:40:21Z</time>
      </trkpt>
      <trkpt lat="44.98597" lon="0.71476">
        <ele>196.4</ele>
        <time>2020-01-02T10:40:22Z</time>
      </trkpt>
      <trkpt lat="44.98583" lon="0.71481">
        <ele>195.2</ele>
        <time>2020-01-02T10:40:25Z</time>
      </trkpt>
      <trkpt lat="44.9858" lon="0.71482">
        <ele>194.8</ele>
        <time>2020-01-02T10:40:26Z</time>
      </trkpt>
      <trkpt lat="44.98567" lon="0.71492">
        <ele>194</ele>
        <time>2020-01-02T10:40:30Z</time>
      </trkpt>
      <trkpt lat="44.98558" lon="0.71507">
        <ele>193</ele>
        <time>2020-01-02T10:40:34Z</time>
      </trkpt>
      <trkpt lat="44.98557" lon="0.71529">
        <ele>191.8</ele>
        <time>2020-01-02T10:40:39Z</time>
      </trkpt>
      <trkpt lat="44.98561" lon="0.71536">
        <ele>190.6</ele>
        <time>2020-01-02T10:40:41Z</time>
      </trkpt>
      <trkpt lat="44.98566" lon="0.71542">
        <ele>190</ele>
        <time>2020-01-02T10:40:43Z</time>
      </trkpt>
      <trkpt lat="44.98572" lon="0.71547">
        <ele>189.4</ele>
        <time>2020-01-02T10:40:45Z</time>
      </trkpt>
      <trkpt lat="44.98578" lon="0.71553">
        <ele>188.2</ele>
        <time>2020-01-02T10:40:47Z</time>
      </trkpt>
      <trkpt lat="44.98584" lon="0.7156">
        <ele>186.8</ele>
        <time>2020-01-02T10:40:49Z</time>
      </trkpt>
      <trkpt lat="44.98597" lon="0.71575">
        <ele>185.8</ele>
        <time>2020-01-02T10:40:54Z</time>
      </trkpt>
      <trkpt lat="44.98612" lon="0.71594">
        <ele>184.8</ele>
        <time>2020-01-02T10:41:00Z</time>
      </trkpt>
      <trkpt lat="44.98621" lon="0.71618">
        <ele>183.8</ele>
        <time>2020-01-02T10:41:04Z</time>
      </trkpt>
      <trkpt lat="44.98621" lon="0.71618">
        <ele>183.8</ele>
        <time>2020-01-02T10:41:05Z</time>
      </trkpt>
      <trkpt lat="44.98622" lon="0.71623">
        <ele>183.6</ele>
        <time>2020-01-02T10:41:06Z</time>
      </trkpt>
      <trkpt lat="44.98625" lon="0.71644">
        <ele>183</ele>
        <time>2020-01-02T10:41:10Z</time>
      </trkpt>
      <trkpt lat="44.98625" lon="0.71654">
        <ele>182</ele>
        <time>2020-01-02T10:41:12Z</time>
      </trkpt>
      <trkpt lat="44.98623" lon="0.71674">
        <ele>181.4</ele>
        <time>2020-01-02T10:41:16Z</time>
      </trkpt>
      <trkpt lat="44.98613" lon="0.71699">
        <ele>182.6</ele>
        <time>2020-01-02T10:41:22Z</time>
      </trkpt>
      <trkpt lat="44.98601" lon="0.71718">
        <ele>181.4</ele>
        <time>2020-01-02T10:41:27Z</time>
      </trkpt>
      <trkpt lat="44.98588" lon="0.71741">
        <ele>181.4</ele>
        <time>2020-01-02T10:41:33Z</time>
      </trkpt>
      <trkpt lat="44.98584" lon="0.71749">
        <ele>181</ele>
        <time>2020-01-02T10:41:35Z</time>
      </trkpt>
      <trkpt lat="44.98574" lon="0.7177">
        <ele>180.6</ele>
        <time>2020-01-02T10:41:40Z</time>
      </trkpt>
      <trkpt lat="44.98572" lon="0.71786">
        <ele>179.6</ele>
        <time>2020-01-02T10:41:44Z</time>
      </trkpt>
      <trkpt lat="44.98572" lon="0.71786">
        <ele>179.6</ele>
        <time>2020-01-02T10:41:45Z</time>
      </trkpt>
      <trkpt lat="44.98573" lon="0.71786">
        <ele>178</ele>
        <time>2020-01-02T10:41:48Z</time>
      </trkpt>
      <trkpt lat="44.98573" lon="0.71785">
        <ele>178</ele>
        <time>2020-01-02T10:41:52Z</time>
      </trkpt>
      <trkpt lat="44.98572" lon="0.71785">
        <ele>178</ele>
        <time>2020-01-02T10:41:53Z</time>
      </trkpt>
      <trkpt lat="44.98572" lon="0.71795">
        <ele>178</ele>
        <time>2020-01-02T10:41:56Z</time>
      </trkpt>
      <trkpt lat="44.98568" lon="0.71821">
        <ele>178</ele>
        <time>2020-01-02T10:42:02Z</time>
      </trkpt>
      <trkpt lat="44.98566" lon="0.71825">
        <ele>177.6</ele>
        <time>2020-01-02T10:42:03Z</time>
      </trkpt>
      <trkpt lat="44.98564" lon="0.71833">
        <ele>177.4</ele>
        <time>2020-01-02T10:42:05Z</time>
      </trkpt>
      <trkpt lat="44.98562" lon="0.7184">
        <ele>177</ele>
        <time>2020-01-02T10:42:07Z</time>
      </trkpt>
      <trkpt lat="44.98578" lon="0.72023">
        <ele>173.5</ele>
      </trkpt>
      <trkpt lat="44.98584" lon="0.7213">
        <ele>174</ele>
      </trkpt>
      <trkpt lat="44.98589" lon="0.72164">
        <ele>173.8</ele>
      </trkpt>
      <trkpt lat="44.9857" lon="0.72179">
        <ele>171.1</ele>
      </trkpt>
      <trkpt lat="44.98575" lon="0.72207">
        <ele>169.3</ele>
      </trkpt>
      <trkpt lat="44.98573" lon="0.72221">
        <ele>167.7</ele>
      </trkpt>
      <trkpt lat="44.98573" lon="0.72246">
        <ele>165.6</ele>
      </trkpt>
      <trkpt lat="44.98615" lon="0.72252">
        <ele>165.6</ele>
      </trkpt>
      <trkpt lat="44.98641" lon="0.72301">
        <ele>166.6</ele>
      </trkpt>
    </trkseg>
  </trk>
</gpx>